<?xml version="1.0" encoding="UTF-8" standalone="no" ?>
<gpx xmlns="http://www.topografix.com/GPX/1/1" xmlns:xsi="http://www.w3.org/2001/XMLSchema-instance" xsi:schemaLocation="http://www.topografix.com/GPX/1/1 http://www.topografix.com/GPX/1/1/gpx.xsd" version="1.1" creator="VisuGPX - https://www.visugpx.com">
  <metadata>
    <name>Moirans 29 km 04-2021</name>
    <desc><![CDATA[Trace 28 Km de Daniel Legras pour samedi 1er mai 2021 ]]></desc>
  </metadata>
  <trk>
    <name><![CDATA[Moirans 29 km 04-2021]]></name>
    <trkseg>
      <trkpt lat="45.32742" lon="5.55434">
        <ele>221.91</ele>
        <time>2021-04-27T08:26:08Z</time>
      </trkpt>
      <trkpt lat="45.32741" lon="5.55428">
        <ele>221.63</ele>
        <time>2021-04-27T08:26:23Z</time>
      </trkpt>
      <trkpt lat="45.32741" lon="5.55424">
        <ele>221.66</ele>
        <time>2021-04-27T08:26:25Z</time>
      </trkpt>
      <trkpt lat="45.32741" lon="5.55423">
        <ele>221.72</ele>
        <time>2021-04-27T08:26:26Z</time>
      </trkpt>
      <trkpt lat="45.32741" lon="5.5542">
        <ele>221.77</ele>
        <time>2021-04-27T08:26:27Z</time>
      </trkpt>
      <trkpt lat="45.32741" lon="5.55417">
        <ele>221.84</ele>
        <time>2021-04-27T08:26:28Z</time>
      </trkpt>
      <trkpt lat="45.32741" lon="5.55414">
        <ele>221.92</ele>
        <time>2021-04-27T08:26:29Z</time>
      </trkpt>
      <trkpt lat="45.3275" lon="5.55372">
        <ele>224.3</ele>
        <time>2021-04-27T08:26:44Z</time>
      </trkpt>
      <trkpt lat="45.3277" lon="5.55327">
        <ele>227.42</ele>
        <time>2021-04-27T08:27:01Z</time>
      </trkpt>
      <trkpt lat="45.32797" lon="5.55278">
        <ele>230.45</ele>
        <time>2021-04-27T08:27:20Z</time>
      </trkpt>
      <trkpt lat="45.32818" lon="5.55241">
        <ele>232.49</ele>
        <time>2021-04-27T08:27:35Z</time>
      </trkpt>
      <trkpt lat="45.32852" lon="5.55184">
        <ele>235.47</ele>
        <time>2021-04-27T08:27:59Z</time>
      </trkpt>
      <trkpt lat="45.32878" lon="5.55142">
        <ele>238.08</ele>
        <time>2021-04-27T08:28:18Z</time>
      </trkpt>
      <trkpt lat="45.32904" lon="5.55102">
        <ele>241.09</ele>
        <time>2021-04-27T08:28:36Z</time>
      </trkpt>
      <trkpt lat="45.32928" lon="5.55058">
        <ele>243.2</ele>
        <time>2021-04-27T08:28:52Z</time>
      </trkpt>
      <trkpt lat="45.32946" lon="5.54999">
        <ele>244.99</ele>
        <time>2021-04-27T08:29:09Z</time>
      </trkpt>
      <trkpt lat="45.32963" lon="5.54939">
        <ele>248.09</ele>
        <time>2021-04-27T08:29:29Z</time>
      </trkpt>
      <trkpt lat="45.32979" lon="5.54888">
        <ele>251.21</ele>
        <time>2021-04-27T08:29:48Z</time>
      </trkpt>
      <trkpt lat="45.32993" lon="5.54843">
        <ele>254.37</ele>
        <time>2021-04-27T08:30:05Z</time>
      </trkpt>
      <trkpt lat="45.33011" lon="5.54797">
        <ele>257.44</ele>
        <time>2021-04-27T08:30:23Z</time>
      </trkpt>
      <trkpt lat="45.33046" lon="5.54756">
        <ele>260.66</ele>
        <time>2021-04-27T08:30:43Z</time>
      </trkpt>
      <trkpt lat="45.33057" lon="5.54735">
        <ele>261.87</ele>
        <time>2021-04-27T08:30:52Z</time>
      </trkpt>
      <trkpt lat="45.33056" lon="5.54732">
        <ele>262.04</ele>
        <time>2021-04-27T08:30:53Z</time>
      </trkpt>
      <trkpt lat="45.33056" lon="5.54729">
        <ele>262.18</ele>
        <time>2021-04-27T08:30:54Z</time>
      </trkpt>
      <trkpt lat="45.33054" lon="5.54727">
        <ele>262.33</ele>
        <time>2021-04-27T08:30:55Z</time>
      </trkpt>
      <trkpt lat="45.33053" lon="5.54724">
        <ele>262.51</ele>
        <time>2021-04-27T08:30:56Z</time>
      </trkpt>
      <trkpt lat="45.33051" lon="5.54722">
        <ele>262.73</ele>
        <time>2021-04-27T08:30:57Z</time>
      </trkpt>
      <trkpt lat="45.3305" lon="5.5472">
        <ele>262.93</ele>
        <time>2021-04-27T08:30:58Z</time>
      </trkpt>
      <trkpt lat="45.3305" lon="5.54718">
        <ele>263.13</ele>
        <time>2021-04-27T08:30:59Z</time>
      </trkpt>
      <trkpt lat="45.33049" lon="5.54716">
        <ele>263.34</ele>
        <time>2021-04-27T08:31:00Z</time>
      </trkpt>
      <trkpt lat="45.33049" lon="5.54714">
        <ele>263.55</ele>
        <time>2021-04-27T08:31:01Z</time>
      </trkpt>
      <trkpt lat="45.33048" lon="5.54712">
        <ele>263.78</ele>
        <time>2021-04-27T08:31:02Z</time>
      </trkpt>
      <trkpt lat="45.33029" lon="5.54662">
        <ele>266.05</ele>
        <time>2021-04-27T08:31:17Z</time>
      </trkpt>
      <trkpt lat="45.32994" lon="5.54606">
        <ele>266.14</ele>
        <time>2021-04-27T08:31:32Z</time>
      </trkpt>
      <trkpt lat="45.32945" lon="5.54521">
        <ele>263.77</ele>
        <time>2021-04-27T08:31:47Z</time>
      </trkpt>
      <trkpt lat="45.32896" lon="5.54448">
        <ele>260.52</ele>
        <time>2021-04-27T08:31:58Z</time>
      </trkpt>
      <trkpt lat="45.32893" lon="5.54442">
        <ele>260.26</ele>
        <time>2021-04-27T08:31:59Z</time>
      </trkpt>
      <trkpt lat="45.32892" lon="5.54436">
        <ele>260</ele>
        <time>2021-04-27T08:32:00Z</time>
      </trkpt>
      <trkpt lat="45.32892" lon="5.5443">
        <ele>259.78</ele>
        <time>2021-04-27T08:32:01Z</time>
      </trkpt>
      <trkpt lat="45.32894" lon="5.54424">
        <ele>259.57</ele>
        <time>2021-04-27T08:32:02Z</time>
      </trkpt>
      <trkpt lat="45.32898" lon="5.5442">
        <ele>259.33</ele>
        <time>2021-04-27T08:32:03Z</time>
      </trkpt>
      <trkpt lat="45.32901" lon="5.54416">
        <ele>259.08</ele>
        <time>2021-04-27T08:32:04Z</time>
      </trkpt>
      <trkpt lat="45.32905" lon="5.54413">
        <ele>258.86</ele>
        <time>2021-04-27T08:32:05Z</time>
      </trkpt>
      <trkpt lat="45.32908" lon="5.5441">
        <ele>258.67</ele>
        <time>2021-04-27T08:32:06Z</time>
      </trkpt>
      <trkpt lat="45.32912" lon="5.54407">
        <ele>258.49</ele>
        <time>2021-04-27T08:32:07Z</time>
      </trkpt>
      <trkpt lat="45.32915" lon="5.54403">
        <ele>258.33</ele>
        <time>2021-04-27T08:32:08Z</time>
      </trkpt>
      <trkpt lat="45.32918" lon="5.54399">
        <ele>258.21</ele>
        <time>2021-04-27T08:32:09Z</time>
      </trkpt>
      <trkpt lat="45.32957" lon="5.54345">
        <ele>258.16</ele>
        <time>2021-04-27T08:32:23Z</time>
      </trkpt>
      <trkpt lat="45.32979" lon="5.54303">
        <ele>260.63</ele>
        <time>2021-04-27T08:32:36Z</time>
      </trkpt>
      <trkpt lat="45.33005" lon="5.54229">
        <ele>262.49</ele>
        <time>2021-04-27T08:32:53Z</time>
      </trkpt>
      <trkpt lat="45.33009" lon="5.54143">
        <ele>262.72</ele>
        <time>2021-04-27T08:33:08Z</time>
      </trkpt>
      <trkpt lat="45.33012" lon="5.54052">
        <ele>262.27</ele>
        <time>2021-04-27T08:33:25Z</time>
      </trkpt>
      <trkpt lat="45.33013" lon="5.5399">
        <ele>262.1</ele>
        <time>2021-04-27T08:33:37Z</time>
      </trkpt>
      <trkpt lat="45.33012" lon="5.53977">
        <ele>262.28</ele>
        <time>2021-04-27T08:33:40Z</time>
      </trkpt>
      <trkpt lat="45.33009" lon="5.53975">
        <ele>262.36</ele>
        <time>2021-04-27T08:33:41Z</time>
      </trkpt>
      <trkpt lat="45.33006" lon="5.5398">
        <ele>262.49</ele>
        <time>2021-04-27T08:33:43Z</time>
      </trkpt>
      <trkpt lat="45.33004" lon="5.53985">
        <ele>262.5</ele>
        <time>2021-04-27T08:33:44Z</time>
      </trkpt>
      <trkpt lat="45.33003" lon="5.5399">
        <ele>262.47</ele>
        <time>2021-04-27T08:33:45Z</time>
      </trkpt>
      <trkpt lat="45.33001" lon="5.53996">
        <ele>262.39</ele>
        <time>2021-04-27T08:33:46Z</time>
      </trkpt>
      <trkpt lat="45.32979" lon="5.54062">
        <ele>260.67</ele>
        <time>2021-04-27T08:33:59Z</time>
      </trkpt>
      <trkpt lat="45.3297" lon="5.54058">
        <ele>260.53</ele>
        <time>2021-04-27T08:34:03Z</time>
      </trkpt>
      <trkpt lat="45.3293" lon="5.53963">
        <ele>259.45</ele>
        <time>2021-04-27T08:34:21Z</time>
      </trkpt>
      <trkpt lat="45.32913" lon="5.53959">
        <ele>259.26</ele>
        <time>2021-04-27T08:34:26Z</time>
      </trkpt>
      <trkpt lat="45.32885" lon="5.54004">
        <ele>259.16</ele>
        <time>2021-04-27T08:34:37Z</time>
      </trkpt>
      <trkpt lat="45.32869" lon="5.54013">
        <ele>259.24</ele>
        <time>2021-04-27T08:34:42Z</time>
      </trkpt>
      <trkpt lat="45.32848" lon="5.54035">
        <ele>259.17</ele>
        <time>2021-04-27T08:34:50Z</time>
      </trkpt>
      <trkpt lat="45.32839" lon="5.54028">
        <ele>259.37</ele>
        <time>2021-04-27T08:34:54Z</time>
      </trkpt>
      <trkpt lat="45.32822" lon="5.53936">
        <ele>258.09</ele>
        <time>2021-04-27T08:35:12Z</time>
      </trkpt>
      <trkpt lat="45.32818" lon="5.53926">
        <ele>258.04</ele>
        <time>2021-04-27T08:35:14Z</time>
      </trkpt>
      <trkpt lat="45.328" lon="5.53867">
        <ele>257.31</ele>
        <time>2021-04-27T08:35:25Z</time>
      </trkpt>
      <trkpt lat="45.32825" lon="5.53827">
        <ele>257.06</ele>
        <time>2021-04-27T08:35:35Z</time>
      </trkpt>
      <trkpt lat="45.32796" lon="5.53776">
        <ele>257.14</ele>
        <time>2021-04-27T08:35:46Z</time>
      </trkpt>
      <trkpt lat="45.32747" lon="5.53717">
        <ele>256.85</ele>
        <time>2021-04-27T08:36:02Z</time>
      </trkpt>
      <trkpt lat="45.32691" lon="5.53657">
        <ele>255.83</ele>
        <time>2021-04-27T08:36:20Z</time>
      </trkpt>
      <trkpt lat="45.32666" lon="5.53601">
        <ele>255.41</ele>
        <time>2021-04-27T08:36:32Z</time>
      </trkpt>
      <trkpt lat="45.3266" lon="5.53584">
        <ele>255.3</ele>
        <time>2021-04-27T08:36:35Z</time>
      </trkpt>
      <trkpt lat="45.32627" lon="5.53497">
        <ele>254.6</ele>
        <time>2021-04-27T08:36:51Z</time>
      </trkpt>
      <trkpt lat="45.32594" lon="5.53381">
        <ele>253.7</ele>
        <time>2021-04-27T08:37:11Z</time>
      </trkpt>
      <trkpt lat="45.32558" lon="5.53384">
        <ele>253.46</ele>
        <time>2021-04-27T08:37:20Z</time>
      </trkpt>
      <trkpt lat="45.32554" lon="5.53382">
        <ele>253.39</ele>
        <time>2021-04-27T08:37:21Z</time>
      </trkpt>
      <trkpt lat="45.32551" lon="5.53379">
        <ele>253.31</ele>
        <time>2021-04-27T08:37:22Z</time>
      </trkpt>
      <trkpt lat="45.32549" lon="5.53375">
        <ele>253.24</ele>
        <time>2021-04-27T08:37:23Z</time>
      </trkpt>
      <trkpt lat="45.32547" lon="5.5337">
        <ele>253.17</ele>
        <time>2021-04-27T08:37:24Z</time>
      </trkpt>
      <trkpt lat="45.32545" lon="5.53364">
        <ele>253.12</ele>
        <time>2021-04-27T08:37:25Z</time>
      </trkpt>
      <trkpt lat="45.32521" lon="5.53255">
        <ele>253.37</ele>
        <time>2021-04-27T08:37:44Z</time>
      </trkpt>
      <trkpt lat="45.32523" lon="5.53155">
        <ele>253.76</ele>
        <time>2021-04-27T08:38:02Z</time>
      </trkpt>
      <trkpt lat="45.32537" lon="5.53138">
        <ele>254.45</ele>
        <time>2021-04-27T08:38:10Z</time>
      </trkpt>
      <trkpt lat="45.32539" lon="5.53138">
        <ele>254.67</ele>
        <time>2021-04-27T08:38:11Z</time>
      </trkpt>
      <trkpt lat="45.3254" lon="5.5314">
        <ele>254.94</ele>
        <time>2021-04-27T08:38:12Z</time>
      </trkpt>
      <trkpt lat="45.32562" lon="5.53142">
        <ele>257.8</ele>
        <time>2021-04-27T08:38:24Z</time>
      </trkpt>
      <trkpt lat="45.32585" lon="5.53122">
        <ele>260.97</ele>
        <time>2021-04-27T08:38:38Z</time>
      </trkpt>
      <trkpt lat="45.32612" lon="5.53099">
        <ele>263.89</ele>
        <time>2021-04-27T08:38:53Z</time>
      </trkpt>
      <trkpt lat="45.3265" lon="5.53085">
        <ele>263.39</ele>
        <time>2021-04-27T08:39:06Z</time>
      </trkpt>
      <trkpt lat="45.32671" lon="5.53098">
        <ele>264.05</ele>
        <time>2021-04-27T08:39:16Z</time>
      </trkpt>
      <trkpt lat="45.32686" lon="5.53094">
        <ele>265.17</ele>
        <time>2021-04-27T08:39:25Z</time>
      </trkpt>
      <trkpt lat="45.32687" lon="5.53093">
        <ele>265.34</ele>
        <time>2021-04-27T08:39:26Z</time>
      </trkpt>
      <trkpt lat="45.32691" lon="5.53087">
        <ele>266.01</ele>
        <time>2021-04-27T08:39:29Z</time>
      </trkpt>
      <trkpt lat="45.32693" lon="5.53085">
        <ele>266.35</ele>
        <time>2021-04-27T08:39:30Z</time>
      </trkpt>
      <trkpt lat="45.32694" lon="5.53082">
        <ele>266.48</ele>
        <time>2021-04-27T08:39:31Z</time>
      </trkpt>
      <trkpt lat="45.32694" lon="5.5308">
        <ele>266.62</ele>
        <time>2021-04-27T08:39:32Z</time>
      </trkpt>
      <trkpt lat="45.32696" lon="5.53077">
        <ele>266.92</ele>
        <time>2021-04-27T08:39:34Z</time>
      </trkpt>
      <trkpt lat="45.32698" lon="5.53066">
        <ele>267.94</ele>
        <time>2021-04-27T08:39:40Z</time>
      </trkpt>
      <trkpt lat="45.32698" lon="5.53064">
        <ele>268.14</ele>
        <time>2021-04-27T08:39:41Z</time>
      </trkpt>
      <trkpt lat="45.32698" lon="5.53062">
        <ele>268.4</ele>
        <time>2021-04-27T08:39:42Z</time>
      </trkpt>
      <trkpt lat="45.32698" lon="5.5306">
        <ele>268.68</ele>
        <time>2021-04-27T08:39:43Z</time>
      </trkpt>
      <trkpt lat="45.32698" lon="5.53057">
        <ele>268.94</ele>
        <time>2021-04-27T08:39:44Z</time>
      </trkpt>
      <trkpt lat="45.32696" lon="5.53033">
        <ele>272.05</ele>
        <time>2021-04-27T08:39:56Z</time>
      </trkpt>
      <trkpt lat="45.32692" lon="5.53004">
        <ele>274.7</ele>
        <time>2021-04-27T08:40:10Z</time>
      </trkpt>
      <trkpt lat="45.32689" lon="5.52996">
        <ele>275.13</ele>
        <time>2021-04-27T08:40:13Z</time>
      </trkpt>
      <trkpt lat="45.3269" lon="5.52977">
        <ele>276.34</ele>
        <time>2021-04-27T08:40:22Z</time>
      </trkpt>
      <trkpt lat="45.3269" lon="5.52975">
        <ele>276.44</ele>
        <time>2021-04-27T08:40:23Z</time>
      </trkpt>
      <trkpt lat="45.32691" lon="5.52957">
        <ele>277.44</ele>
        <time>2021-04-27T08:40:31Z</time>
      </trkpt>
      <trkpt lat="45.3269" lon="5.52948">
        <ele>278.19</ele>
        <time>2021-04-27T08:40:36Z</time>
      </trkpt>
      <trkpt lat="45.3269" lon="5.52946">
        <ele>278.35</ele>
        <time>2021-04-27T08:40:37Z</time>
      </trkpt>
      <trkpt lat="45.3269" lon="5.52944">
        <ele>278.51</ele>
        <time>2021-04-27T08:40:38Z</time>
      </trkpt>
      <trkpt lat="45.32691" lon="5.52941">
        <ele>278.66</ele>
        <time>2021-04-27T08:40:39Z</time>
      </trkpt>
      <trkpt lat="45.32692" lon="5.5294">
        <ele>278.81</ele>
        <time>2021-04-27T08:40:40Z</time>
      </trkpt>
      <trkpt lat="45.32693" lon="5.52938">
        <ele>278.98</ele>
        <time>2021-04-27T08:40:41Z</time>
      </trkpt>
      <trkpt lat="45.32701" lon="5.52925">
        <ele>280.76</ele>
        <time>2021-04-27T08:40:49Z</time>
      </trkpt>
      <trkpt lat="45.32715" lon="5.52918">
        <ele>283.57</ele>
        <time>2021-04-27T08:41:02Z</time>
      </trkpt>
      <trkpt lat="45.32723" lon="5.52917">
        <ele>284.92</ele>
        <time>2021-04-27T08:41:10Z</time>
      </trkpt>
      <trkpt lat="45.32737" lon="5.52917">
        <ele>286.9</ele>
        <time>2021-04-27T08:41:23Z</time>
      </trkpt>
      <trkpt lat="45.32765" lon="5.52921">
        <ele>288.33</ele>
        <time>2021-04-27T08:41:37Z</time>
      </trkpt>
      <trkpt lat="45.32795" lon="5.52918">
        <ele>288.84</ele>
        <time>2021-04-27T08:41:50Z</time>
      </trkpt>
      <trkpt lat="45.32816" lon="5.52932">
        <ele>289.29</ele>
        <time>2021-04-27T08:42:02Z</time>
      </trkpt>
      <trkpt lat="45.32832" lon="5.52943">
        <ele>291.5</ele>
        <time>2021-04-27T08:42:15Z</time>
      </trkpt>
      <trkpt lat="45.32846" lon="5.52954">
        <ele>294.5</ele>
        <time>2021-04-27T08:42:28Z</time>
      </trkpt>
      <trkpt lat="45.32862" lon="5.5297">
        <ele>297.54</ele>
        <time>2021-04-27T08:42:41Z</time>
      </trkpt>
      <trkpt lat="45.3288" lon="5.52996">
        <ele>299.03</ele>
        <time>2021-04-27T08:42:55Z</time>
      </trkpt>
      <trkpt lat="45.32902" lon="5.53006">
        <ele>299.56</ele>
        <time>2021-04-27T08:43:07Z</time>
      </trkpt>
      <trkpt lat="45.32923" lon="5.53011">
        <ele>300.42</ele>
        <time>2021-04-27T08:43:19Z</time>
      </trkpt>
      <trkpt lat="45.32934" lon="5.53029">
        <ele>302.41</ele>
        <time>2021-04-27T08:43:31Z</time>
      </trkpt>
      <trkpt lat="45.32939" lon="5.53053">
        <ele>305.66</ele>
        <time>2021-04-27T08:43:46Z</time>
      </trkpt>
      <trkpt lat="45.32943" lon="5.53073">
        <ele>308.67</ele>
        <time>2021-04-27T08:43:59Z</time>
      </trkpt>
      <trkpt lat="45.3295" lon="5.53096">
        <ele>311.27</ele>
        <time>2021-04-27T08:44:12Z</time>
      </trkpt>
      <trkpt lat="45.32963" lon="5.53123">
        <ele>312.83</ele>
        <time>2021-04-27T08:44:26Z</time>
      </trkpt>
      <trkpt lat="45.32974" lon="5.53147">
        <ele>314.21</ele>
        <time>2021-04-27T08:44:38Z</time>
      </trkpt>
      <trkpt lat="45.3298" lon="5.53156">
        <ele>314.96</ele>
        <time>2021-04-27T08:44:43Z</time>
      </trkpt>
      <trkpt lat="45.32985" lon="5.53164">
        <ele>315.43</ele>
        <time>2021-04-27T08:44:47Z</time>
      </trkpt>
      <trkpt lat="45.33009" lon="5.53189">
        <ele>316.23</ele>
        <time>2021-04-27T08:45:00Z</time>
      </trkpt>
      <trkpt lat="45.33038" lon="5.53208">
        <ele>315.52</ele>
        <time>2021-04-27T08:45:12Z</time>
      </trkpt>
      <trkpt lat="45.33081" lon="5.53228">
        <ele>316.87</ele>
        <time>2021-04-27T08:45:27Z</time>
      </trkpt>
      <trkpt lat="45.33114" lon="5.53244">
        <ele>316.73</ele>
        <time>2021-04-27T08:45:38Z</time>
      </trkpt>
      <trkpt lat="45.33148" lon="5.5328">
        <ele>315.81</ele>
        <time>2021-04-27T08:45:51Z</time>
      </trkpt>
      <trkpt lat="45.33174" lon="5.53315">
        <ele>315.2</ele>
        <time>2021-04-27T08:46:02Z</time>
      </trkpt>
      <trkpt lat="45.3319" lon="5.53347">
        <ele>314.57</ele>
        <time>2021-04-27T08:46:10Z</time>
      </trkpt>
      <trkpt lat="45.33208" lon="5.5334">
        <ele>314.41</ele>
        <time>2021-04-27T08:46:19Z</time>
      </trkpt>
      <trkpt lat="45.33226" lon="5.53318">
        <ele>314.41</ele>
        <time>2021-04-27T08:46:28Z</time>
      </trkpt>
      <trkpt lat="45.33233" lon="5.53309">
        <ele>314.06</ele>
        <time>2021-04-27T08:46:30Z</time>
      </trkpt>
      <trkpt lat="45.33243" lon="5.53266">
        <ele>310.15</ele>
        <time>2021-04-27T08:46:37Z</time>
      </trkpt>
      <trkpt lat="45.33241" lon="5.53253">
        <ele>309.56</ele>
        <time>2021-04-27T08:46:39Z</time>
      </trkpt>
      <trkpt lat="45.33237" lon="5.53229">
        <ele>308.15</ele>
        <time>2021-04-27T08:46:43Z</time>
      </trkpt>
      <trkpt lat="45.33241" lon="5.53196">
        <ele>304.48</ele>
        <time>2021-04-27T08:46:49Z</time>
      </trkpt>
      <trkpt lat="45.33247" lon="5.53182">
        <ele>300.43</ele>
        <time>2021-04-27T08:46:55Z</time>
      </trkpt>
      <trkpt lat="45.33246" lon="5.53171">
        <ele>297.37</ele>
        <time>2021-04-27T08:47:00Z</time>
      </trkpt>
      <trkpt lat="45.33245" lon="5.53163">
        <ele>294.32</ele>
        <time>2021-04-27T08:47:07Z</time>
      </trkpt>
      <trkpt lat="45.33245" lon="5.53154">
        <ele>293.7</ele>
        <time>2021-04-27T08:47:11Z</time>
      </trkpt>
      <trkpt lat="45.33246" lon="5.53123">
        <ele>290.86</ele>
        <time>2021-04-27T08:47:20Z</time>
      </trkpt>
      <trkpt lat="45.33246" lon="5.53114">
        <ele>289.07</ele>
        <time>2021-04-27T08:47:22Z</time>
      </trkpt>
      <trkpt lat="45.3323" lon="5.5309">
        <ele>284.53</ele>
        <time>2021-04-27T08:47:28Z</time>
      </trkpt>
      <trkpt lat="45.33223" lon="5.53081">
        <ele>282.56</ele>
        <time>2021-04-27T08:47:30Z</time>
      </trkpt>
      <trkpt lat="45.33215" lon="5.53073">
        <ele>280.41</ele>
        <time>2021-04-27T08:47:32Z</time>
      </trkpt>
      <trkpt lat="45.33201" lon="5.53054">
        <ele>276.33</ele>
        <time>2021-04-27T08:47:36Z</time>
      </trkpt>
      <trkpt lat="45.33185" lon="5.53033">
        <ele>271.33</ele>
        <time>2021-04-27T08:47:40Z</time>
      </trkpt>
      <trkpt lat="45.3318" lon="5.53027">
        <ele>267.67</ele>
        <time>2021-04-27T08:47:43Z</time>
      </trkpt>
      <trkpt lat="45.33179" lon="5.53024">
        <ele>267.67</ele>
        <time>2021-04-27T08:47:44Z</time>
      </trkpt>
      <trkpt lat="45.33189" lon="5.53026">
        <ele>264.09</ele>
        <time>2021-04-27T08:47:53Z</time>
      </trkpt>
      <trkpt lat="45.33205" lon="5.53035">
        <ele>264.37</ele>
        <time>2021-04-27T08:48:07Z</time>
      </trkpt>
      <trkpt lat="45.33234" lon="5.53019">
        <ele>265.13</ele>
        <time>2021-04-27T08:48:19Z</time>
      </trkpt>
      <trkpt lat="45.33251" lon="5.52995">
        <ele>266.32</ele>
        <time>2021-04-27T08:48:31Z</time>
      </trkpt>
      <trkpt lat="45.33265" lon="5.52977">
        <ele>268.47</ele>
        <time>2021-04-27T08:48:45Z</time>
      </trkpt>
      <trkpt lat="45.33283" lon="5.52966">
        <ele>269.68</ele>
        <time>2021-04-27T08:48:54Z</time>
      </trkpt>
      <trkpt lat="45.33303" lon="5.52959">
        <ele>271.53</ele>
        <time>2021-04-27T08:49:05Z</time>
      </trkpt>
      <trkpt lat="45.33325" lon="5.52963">
        <ele>272.39</ele>
        <time>2021-04-27T08:49:14Z</time>
      </trkpt>
      <trkpt lat="45.33338" lon="5.52966">
        <ele>272.35</ele>
        <time>2021-04-27T08:49:18Z</time>
      </trkpt>
      <trkpt lat="45.33355" lon="5.52974">
        <ele>272.53</ele>
        <time>2021-04-27T08:49:24Z</time>
      </trkpt>
      <trkpt lat="45.33362" lon="5.52976">
        <ele>272.48</ele>
        <time>2021-04-27T08:49:26Z</time>
      </trkpt>
      <trkpt lat="45.33376" lon="5.52985">
        <ele>272.5</ele>
        <time>2021-04-27T08:49:31Z</time>
      </trkpt>
      <trkpt lat="45.33383" lon="5.52989">
        <ele>272.67</ele>
        <time>2021-04-27T08:49:34Z</time>
      </trkpt>
      <trkpt lat="45.33397" lon="5.5301">
        <ele>273.1</ele>
        <time>2021-04-27T08:49:41Z</time>
      </trkpt>
      <trkpt lat="45.33416" lon="5.53034">
        <ele>273.9</ele>
        <time>2021-04-27T08:49:53Z</time>
      </trkpt>
      <trkpt lat="45.33427" lon="5.53041">
        <ele>274.53</ele>
        <time>2021-04-27T08:49:58Z</time>
      </trkpt>
      <trkpt lat="45.33439" lon="5.53046">
        <ele>275.26</ele>
        <time>2021-04-27T08:50:03Z</time>
      </trkpt>
      <trkpt lat="45.33465" lon="5.53068">
        <ele>276.21</ele>
        <time>2021-04-27T08:50:14Z</time>
      </trkpt>
      <trkpt lat="45.33484" lon="5.53083">
        <ele>277.83</ele>
        <time>2021-04-27T08:50:24Z</time>
      </trkpt>
      <trkpt lat="45.33497" lon="5.53088">
        <ele>278.75</ele>
        <time>2021-04-27T08:50:31Z</time>
      </trkpt>
      <trkpt lat="45.33508" lon="5.53088">
        <ele>279.3</ele>
        <time>2021-04-27T08:50:35Z</time>
      </trkpt>
      <trkpt lat="45.33529" lon="5.53097">
        <ele>280.11</ele>
        <time>2021-04-27T08:50:43Z</time>
      </trkpt>
      <trkpt lat="45.33556" lon="5.53119">
        <ele>280.66</ele>
        <time>2021-04-27T08:50:53Z</time>
      </trkpt>
      <trkpt lat="45.33569" lon="5.53131">
        <ele>281.65</ele>
        <time>2021-04-27T08:51:03Z</time>
      </trkpt>
      <trkpt lat="45.33588" lon="5.53143">
        <ele>282.31</ele>
        <time>2021-04-27T08:51:11Z</time>
      </trkpt>
      <trkpt lat="45.33611" lon="5.53152">
        <ele>283.47</ele>
        <time>2021-04-27T08:51:21Z</time>
      </trkpt>
      <trkpt lat="45.33618" lon="5.53159">
        <ele>284.03</ele>
        <time>2021-04-27T08:51:26Z</time>
      </trkpt>
      <trkpt lat="45.33629" lon="5.53162">
        <ele>284.39</ele>
        <time>2021-04-27T08:51:30Z</time>
      </trkpt>
      <trkpt lat="45.33643" lon="5.53174">
        <ele>284.97</ele>
        <time>2021-04-27T08:51:36Z</time>
      </trkpt>
      <trkpt lat="45.33649" lon="5.53185">
        <ele>285.45</ele>
        <time>2021-04-27T08:51:40Z</time>
      </trkpt>
      <trkpt lat="45.33653" lon="5.532">
        <ele>286.34</ele>
        <time>2021-04-27T08:51:46Z</time>
      </trkpt>
      <trkpt lat="45.3365" lon="5.53207">
        <ele>286.62</ele>
        <time>2021-04-27T08:51:50Z</time>
      </trkpt>
      <trkpt lat="45.33651" lon="5.53224">
        <ele>286.85</ele>
        <time>2021-04-27T08:51:56Z</time>
      </trkpt>
      <trkpt lat="45.33655" lon="5.5326">
        <ele>287.5</ele>
        <time>2021-04-27T08:52:05Z</time>
      </trkpt>
      <trkpt lat="45.3367" lon="5.5331">
        <ele>288.35</ele>
        <time>2021-04-27T08:52:16Z</time>
      </trkpt>
      <trkpt lat="45.33672" lon="5.53317">
        <ele>288.53</ele>
        <time>2021-04-27T08:52:18Z</time>
      </trkpt>
      <trkpt lat="45.33687" lon="5.53355">
        <ele>290</ele>
        <time>2021-04-27T08:52:29Z</time>
      </trkpt>
      <trkpt lat="45.33694" lon="5.53372">
        <ele>290.76</ele>
        <time>2021-04-27T08:52:35Z</time>
      </trkpt>
      <trkpt lat="45.33702" lon="5.53392">
        <ele>292.13</ele>
        <time>2021-04-27T08:52:50Z</time>
      </trkpt>
      <trkpt lat="45.33706" lon="5.53409">
        <ele>292.86</ele>
        <time>2021-04-27T08:53:11Z</time>
      </trkpt>
      <trkpt lat="45.33706" lon="5.53415">
        <ele>293.01</ele>
        <time>2021-04-27T08:53:24Z</time>
      </trkpt>
      <trkpt lat="45.33705" lon="5.53465">
        <ele>293.03</ele>
        <time>2021-04-27T08:53:38Z</time>
      </trkpt>
      <trkpt lat="45.33698" lon="5.53535">
        <ele>294.65</ele>
        <time>2021-04-27T08:53:52Z</time>
      </trkpt>
      <trkpt lat="45.33679" lon="5.53583">
        <ele>296.24</ele>
        <time>2021-04-27T08:54:05Z</time>
      </trkpt>
      <trkpt lat="45.33671" lon="5.5364">
        <ele>297.06</ele>
        <time>2021-04-27T08:54:17Z</time>
      </trkpt>
      <trkpt lat="45.33694" lon="5.53716">
        <ele>298.75</ele>
        <time>2021-04-27T08:54:32Z</time>
      </trkpt>
      <trkpt lat="45.33703" lon="5.53773">
        <ele>299.99</ele>
        <time>2021-04-27T08:54:45Z</time>
      </trkpt>
      <trkpt lat="45.33711" lon="5.53787">
        <ele>300.22</ele>
        <time>2021-04-27T08:54:49Z</time>
      </trkpt>
      <trkpt lat="45.3375" lon="5.53772">
        <ele>301.7</ele>
        <time>2021-04-27T08:55:03Z</time>
      </trkpt>
      <trkpt lat="45.33779" lon="5.53749">
        <ele>303.62</ele>
        <time>2021-04-27T08:55:17Z</time>
      </trkpt>
      <trkpt lat="45.338" lon="5.53712">
        <ele>305.59</ele>
        <time>2021-04-27T08:55:31Z</time>
      </trkpt>
      <trkpt lat="45.33803" lon="5.53709">
        <ele>305.87</ele>
        <time>2021-04-27T08:55:33Z</time>
      </trkpt>
      <trkpt lat="45.33804" lon="5.53709">
        <ele>306.01</ele>
        <time>2021-04-27T08:55:34Z</time>
      </trkpt>
      <trkpt lat="45.33816" lon="5.53723">
        <ele>308.01</ele>
        <time>2021-04-27T08:55:44Z</time>
      </trkpt>
      <trkpt lat="45.33821" lon="5.53723">
        <ele>309.29</ele>
        <time>2021-04-27T08:55:48Z</time>
      </trkpt>
      <trkpt lat="45.33834" lon="5.53696">
        <ele>311.25</ele>
        <time>2021-04-27T08:56:03Z</time>
      </trkpt>
      <trkpt lat="45.33841" lon="5.53676">
        <ele>312.33</ele>
        <time>2021-04-27T08:56:25Z</time>
      </trkpt>
      <trkpt lat="45.33855" lon="5.53642">
        <ele>314.14</ele>
        <time>2021-04-27T08:56:40Z</time>
      </trkpt>
      <trkpt lat="45.33869" lon="5.53607">
        <ele>316.54</ele>
        <time>2021-04-27T08:56:56Z</time>
      </trkpt>
      <trkpt lat="45.33879" lon="5.53582">
        <ele>318.74</ele>
        <time>2021-04-27T08:57:08Z</time>
      </trkpt>
      <trkpt lat="45.33887" lon="5.53536">
        <ele>322.03</ele>
        <time>2021-04-27T08:57:27Z</time>
      </trkpt>
      <trkpt lat="45.33892" lon="5.53496">
        <ele>324.65</ele>
        <time>2021-04-27T08:57:43Z</time>
      </trkpt>
      <trkpt lat="45.33899" lon="5.53461">
        <ele>327.7</ele>
        <time>2021-04-27T08:57:58Z</time>
      </trkpt>
      <trkpt lat="45.33902" lon="5.53454">
        <ele>328.34</ele>
        <time>2021-04-27T08:58:02Z</time>
      </trkpt>
      <trkpt lat="45.33905" lon="5.53446">
        <ele>329.43</ele>
        <time>2021-04-27T08:58:07Z</time>
      </trkpt>
      <trkpt lat="45.33909" lon="5.53438">
        <ele>331.04</ele>
        <time>2021-04-27T08:58:13Z</time>
      </trkpt>
      <trkpt lat="45.33912" lon="5.53436">
        <ele>331.67</ele>
        <time>2021-04-27T08:58:16Z</time>
      </trkpt>
      <trkpt lat="45.33931" lon="5.53422">
        <ele>334.99</ele>
        <time>2021-04-27T08:58:33Z</time>
      </trkpt>
      <trkpt lat="45.33955" lon="5.53414">
        <ele>338.16</ele>
        <time>2021-04-27T08:58:47Z</time>
      </trkpt>
      <trkpt lat="45.33974" lon="5.53401">
        <ele>341.24</ele>
        <time>2021-04-27T08:59:02Z</time>
      </trkpt>
      <trkpt lat="45.33984" lon="5.5337">
        <ele>344.4</ele>
        <time>2021-04-27T08:59:19Z</time>
      </trkpt>
      <trkpt lat="45.33988" lon="5.53339">
        <ele>347.02</ele>
        <time>2021-04-27T08:59:35Z</time>
      </trkpt>
      <trkpt lat="45.33993" lon="5.53308">
        <ele>350.07</ele>
        <time>2021-04-27T08:59:51Z</time>
      </trkpt>
      <trkpt lat="45.33997" lon="5.53279">
        <ele>353.19</ele>
        <time>2021-04-27T09:00:06Z</time>
      </trkpt>
      <trkpt lat="45.34002" lon="5.5325">
        <ele>356.26</ele>
        <time>2021-04-27T09:00:22Z</time>
      </trkpt>
      <trkpt lat="45.34009" lon="5.53215">
        <ele>359.2</ele>
        <time>2021-04-27T09:00:38Z</time>
      </trkpt>
      <trkpt lat="45.34001" lon="5.53182">
        <ele>362.1</ele>
        <time>2021-04-27T09:00:54Z</time>
      </trkpt>
      <trkpt lat="45.33988" lon="5.53174">
        <ele>362.79</ele>
        <time>2021-04-27T09:01:02Z</time>
      </trkpt>
      <trkpt lat="45.33957" lon="5.53155">
        <ele>363.14</ele>
        <time>2021-04-27T09:01:16Z</time>
      </trkpt>
      <trkpt lat="45.33929" lon="5.53132">
        <ele>363.07</ele>
        <time>2021-04-27T09:01:29Z</time>
      </trkpt>
      <trkpt lat="45.33909" lon="5.53106">
        <ele>363.62</ele>
        <time>2021-04-27T09:01:40Z</time>
      </trkpt>
      <trkpt lat="45.3388" lon="5.53083">
        <ele>365.1</ele>
        <time>2021-04-27T09:01:54Z</time>
      </trkpt>
      <trkpt lat="45.33849" lon="5.53059">
        <ele>366.95</ele>
        <time>2021-04-27T09:02:09Z</time>
      </trkpt>
      <trkpt lat="45.3381" lon="5.53015">
        <ele>367.75</ele>
        <time>2021-04-27T09:02:26Z</time>
      </trkpt>
      <trkpt lat="45.33767" lon="5.52942">
        <ele>365.61</ele>
        <time>2021-04-27T09:02:41Z</time>
      </trkpt>
      <trkpt lat="45.33722" lon="5.52898">
        <ele>362.6</ele>
        <time>2021-04-27T09:02:50Z</time>
      </trkpt>
      <trkpt lat="45.33662" lon="5.52858">
        <ele>360.29</ele>
        <time>2021-04-27T09:03:02Z</time>
      </trkpt>
      <trkpt lat="45.33658" lon="5.52856">
        <ele>360.22</ele>
        <time>2021-04-27T09:03:03Z</time>
      </trkpt>
      <trkpt lat="45.33654" lon="5.52854">
        <ele>360.16</ele>
        <time>2021-04-27T09:03:04Z</time>
      </trkpt>
      <trkpt lat="45.33611" lon="5.5283">
        <ele>359.89</ele>
        <time>2021-04-27T09:03:15Z</time>
      </trkpt>
      <trkpt lat="45.33587" lon="5.52815">
        <ele>359.99</ele>
        <time>2021-04-27T09:03:21Z</time>
      </trkpt>
      <trkpt lat="45.33584" lon="5.52811">
        <ele>359.95</ele>
        <time>2021-04-27T09:03:22Z</time>
      </trkpt>
      <trkpt lat="45.33579" lon="5.52808">
        <ele>359.83</ele>
        <time>2021-04-27T09:03:23Z</time>
      </trkpt>
      <trkpt lat="45.33507" lon="5.52756">
        <ele>358.43</ele>
        <time>2021-04-27T09:03:40Z</time>
      </trkpt>
      <trkpt lat="45.33504" lon="5.52753">
        <ele>358.41</ele>
        <time>2021-04-27T09:03:41Z</time>
      </trkpt>
      <trkpt lat="45.33482" lon="5.52732">
        <ele>358.37</ele>
        <time>2021-04-27T09:03:47Z</time>
      </trkpt>
      <trkpt lat="45.33478" lon="5.52728">
        <ele>358.35</ele>
        <time>2021-04-27T09:03:48Z</time>
      </trkpt>
      <trkpt lat="45.33458" lon="5.52711">
        <ele>358.15</ele>
        <time>2021-04-27T09:03:53Z</time>
      </trkpt>
      <trkpt lat="45.33454" lon="5.52707">
        <ele>358.12</ele>
        <time>2021-04-27T09:03:54Z</time>
      </trkpt>
      <trkpt lat="45.334" lon="5.52673">
        <ele>357.82</ele>
        <time>2021-04-27T09:04:08Z</time>
      </trkpt>
      <trkpt lat="45.33383" lon="5.52674">
        <ele>357.53</ele>
        <time>2021-04-27T09:04:12Z</time>
      </trkpt>
      <trkpt lat="45.33379" lon="5.52678">
        <ele>357.34</ele>
        <time>2021-04-27T09:04:13Z</time>
      </trkpt>
      <trkpt lat="45.33365" lon="5.52691">
        <ele>356.81</ele>
        <time>2021-04-27T09:04:16Z</time>
      </trkpt>
      <trkpt lat="45.33319" lon="5.52719">
        <ele>353.2</ele>
        <time>2021-04-27T09:04:24Z</time>
      </trkpt>
      <trkpt lat="45.33314" lon="5.52722">
        <ele>352.62</ele>
        <time>2021-04-27T09:04:25Z</time>
      </trkpt>
      <trkpt lat="45.33302" lon="5.52727">
        <ele>351.34</ele>
        <time>2021-04-27T09:04:27Z</time>
      </trkpt>
      <trkpt lat="45.33259" lon="5.52715">
        <ele>346.65</ele>
        <time>2021-04-27T09:04:32Z</time>
      </trkpt>
      <trkpt lat="45.33231" lon="5.52684">
        <ele>343.23</ele>
        <time>2021-04-27T09:04:36Z</time>
      </trkpt>
      <trkpt lat="45.33217" lon="5.52669">
        <ele>341.63</ele>
        <time>2021-04-27T09:04:38Z</time>
      </trkpt>
      <trkpt lat="45.33192" lon="5.52644">
        <ele>340.69</ele>
        <time>2021-04-27T09:04:42Z</time>
      </trkpt>
      <trkpt lat="45.33171" lon="5.52612">
        <ele>340.33</ele>
        <time>2021-04-27T09:04:47Z</time>
      </trkpt>
      <trkpt lat="45.33151" lon="5.52589">
        <ele>340.97</ele>
        <time>2021-04-27T09:04:55Z</time>
      </trkpt>
      <trkpt lat="45.33142" lon="5.52574">
        <ele>340.84</ele>
        <time>2021-04-27T09:05:00Z</time>
      </trkpt>
      <trkpt lat="45.33109" lon="5.52549">
        <ele>341.04</ele>
        <time>2021-04-27T09:05:09Z</time>
      </trkpt>
      <trkpt lat="45.33075" lon="5.52524">
        <ele>341.08</ele>
        <time>2021-04-27T09:05:19Z</time>
      </trkpt>
      <trkpt lat="45.33055" lon="5.52489">
        <ele>341</ele>
        <time>2021-04-27T09:05:27Z</time>
      </trkpt>
      <trkpt lat="45.33045" lon="5.52475">
        <ele>341.12</ele>
        <time>2021-04-27T09:05:31Z</time>
      </trkpt>
      <trkpt lat="45.33005" lon="5.52424">
        <ele>340.96</ele>
        <time>2021-04-27T09:05:43Z</time>
      </trkpt>
      <trkpt lat="45.32979" lon="5.52394">
        <ele>341.47</ele>
        <time>2021-04-27T09:05:53Z</time>
      </trkpt>
      <trkpt lat="45.32971" lon="5.52377">
        <ele>341.72</ele>
        <time>2021-04-27T09:05:57Z</time>
      </trkpt>
      <trkpt lat="45.32955" lon="5.52343">
        <ele>341.52</ele>
        <time>2021-04-27T09:06:05Z</time>
      </trkpt>
      <trkpt lat="45.32951" lon="5.52337">
        <ele>341.41</ele>
        <time>2021-04-27T09:06:06Z</time>
      </trkpt>
      <trkpt lat="45.32947" lon="5.5233">
        <ele>341.28</ele>
        <time>2021-04-27T09:06:07Z</time>
      </trkpt>
      <trkpt lat="45.32932" lon="5.52303">
        <ele>340.13</ele>
        <time>2021-04-27T09:06:11Z</time>
      </trkpt>
      <trkpt lat="45.32914" lon="5.52261">
        <ele>337.36</ele>
        <time>2021-04-27T09:06:16Z</time>
      </trkpt>
      <trkpt lat="45.32907" lon="5.52247">
        <ele>335.43</ele>
        <time>2021-04-27T09:06:18Z</time>
      </trkpt>
      <trkpt lat="45.32902" lon="5.5224">
        <ele>334.71</ele>
        <time>2021-04-27T09:06:19Z</time>
      </trkpt>
      <trkpt lat="45.32871" lon="5.52198">
        <ele>331.11</ele>
        <time>2021-04-27T09:06:25Z</time>
      </trkpt>
      <trkpt lat="45.3286" lon="5.52185">
        <ele>329.84</ele>
        <time>2021-04-27T09:06:27Z</time>
      </trkpt>
      <trkpt lat="45.32843" lon="5.5216">
        <ele>327.67</ele>
        <time>2021-04-27T09:06:31Z</time>
      </trkpt>
      <trkpt lat="45.3284" lon="5.52152">
        <ele>327.12</ele>
        <time>2021-04-27T09:06:32Z</time>
      </trkpt>
      <trkpt lat="45.32837" lon="5.52142">
        <ele>326.6</ele>
        <time>2021-04-27T09:06:33Z</time>
      </trkpt>
      <trkpt lat="45.32825" lon="5.52099">
        <ele>322.92</ele>
        <time>2021-04-27T09:06:38Z</time>
      </trkpt>
      <trkpt lat="45.32819" lon="5.52085">
        <ele>319.57</ele>
        <time>2021-04-27T09:06:41Z</time>
      </trkpt>
      <trkpt lat="45.32818" lon="5.52081">
        <ele>318.81</ele>
        <time>2021-04-27T09:06:42Z</time>
      </trkpt>
      <trkpt lat="45.32818" lon="5.52079">
        <ele>318.05</ele>
        <time>2021-04-27T09:06:43Z</time>
      </trkpt>
      <trkpt lat="45.32819" lon="5.52078">
        <ele>317.36</ele>
        <time>2021-04-27T09:06:44Z</time>
      </trkpt>
      <trkpt lat="45.32832" lon="5.52067">
        <ele>316.5</ele>
        <time>2021-04-27T09:06:59Z</time>
      </trkpt>
      <trkpt lat="45.32859" lon="5.52053">
        <ele>319.57</ele>
        <time>2021-04-27T09:07:16Z</time>
      </trkpt>
      <trkpt lat="45.3288" lon="5.52042">
        <ele>321.98</ele>
        <time>2021-04-27T09:07:32Z</time>
      </trkpt>
      <trkpt lat="45.32899" lon="5.52035">
        <ele>324.06</ele>
        <time>2021-04-27T09:07:47Z</time>
      </trkpt>
      <trkpt lat="45.3292" lon="5.52029">
        <ele>327.25</ele>
        <time>2021-04-27T09:08:01Z</time>
      </trkpt>
      <trkpt lat="45.32941" lon="5.52019">
        <ele>330.39</ele>
        <time>2021-04-27T09:08:18Z</time>
      </trkpt>
      <trkpt lat="45.3295" lon="5.5202">
        <ele>331.27</ele>
        <time>2021-04-27T09:08:26Z</time>
      </trkpt>
      <trkpt lat="45.32959" lon="5.52025">
        <ele>332.18</ele>
        <time>2021-04-27T09:08:32Z</time>
      </trkpt>
      <trkpt lat="45.32985" lon="5.52044">
        <ele>334.94</ele>
        <time>2021-04-27T09:08:53Z</time>
      </trkpt>
      <trkpt lat="45.32989" lon="5.52046">
        <ele>335.36</ele>
        <time>2021-04-27T09:08:56Z</time>
      </trkpt>
      <trkpt lat="45.33004" lon="5.52058">
        <ele>336.63</ele>
        <time>2021-04-27T09:09:07Z</time>
      </trkpt>
      <trkpt lat="45.33018" lon="5.52072">
        <ele>338.42</ele>
        <time>2021-04-27T09:09:19Z</time>
      </trkpt>
      <trkpt lat="45.33039" lon="5.52083">
        <ele>339.59</ele>
        <time>2021-04-27T09:09:31Z</time>
      </trkpt>
      <trkpt lat="45.33044" lon="5.52086">
        <ele>339.82</ele>
        <time>2021-04-27T09:09:34Z</time>
      </trkpt>
      <trkpt lat="45.33057" lon="5.521">
        <ele>340.85</ele>
        <time>2021-04-27T09:09:44Z</time>
      </trkpt>
      <trkpt lat="45.33065" lon="5.52107">
        <ele>341.34</ele>
        <time>2021-04-27T09:09:49Z</time>
      </trkpt>
      <trkpt lat="45.33079" lon="5.52115">
        <ele>342.15</ele>
        <time>2021-04-27T09:09:56Z</time>
      </trkpt>
      <trkpt lat="45.33096" lon="5.52122">
        <ele>344</ele>
        <time>2021-04-27T09:10:07Z</time>
      </trkpt>
      <trkpt lat="45.33104" lon="5.52125">
        <ele>345.26</ele>
        <time>2021-04-27T09:10:13Z</time>
      </trkpt>
      <trkpt lat="45.33124" lon="5.52134">
        <ele>347.62</ele>
        <time>2021-04-27T09:10:27Z</time>
      </trkpt>
      <trkpt lat="45.33137" lon="5.52143">
        <ele>349.51</ele>
        <time>2021-04-27T09:10:36Z</time>
      </trkpt>
      <trkpt lat="45.33157" lon="5.52156">
        <ele>351.39</ele>
        <time>2021-04-27T09:10:50Z</time>
      </trkpt>
      <trkpt lat="45.33165" lon="5.5216">
        <ele>352.33</ele>
        <time>2021-04-27T09:10:56Z</time>
      </trkpt>
      <trkpt lat="45.33189" lon="5.52163">
        <ele>354.81</ele>
        <time>2021-04-27T09:11:12Z</time>
      </trkpt>
      <trkpt lat="45.33199" lon="5.52167">
        <ele>356.16</ele>
        <time>2021-04-27T09:11:19Z</time>
      </trkpt>
      <trkpt lat="45.33222" lon="5.52176">
        <ele>357.66</ele>
        <time>2021-04-27T09:11:32Z</time>
      </trkpt>
      <trkpt lat="45.33248" lon="5.52179">
        <ele>358.95</ele>
        <time>2021-04-27T09:11:43Z</time>
      </trkpt>
      <trkpt lat="45.33269" lon="5.52182">
        <ele>360.37</ele>
        <time>2021-04-27T09:11:55Z</time>
      </trkpt>
      <trkpt lat="45.33293" lon="5.52188">
        <ele>361.57</ele>
        <time>2021-04-27T09:12:06Z</time>
      </trkpt>
      <trkpt lat="45.33334" lon="5.52214">
        <ele>363.34</ele>
        <time>2021-04-27T09:12:20Z</time>
      </trkpt>
      <trkpt lat="45.33381" lon="5.52254">
        <ele>364.54</ele>
        <time>2021-04-27T09:12:39Z</time>
      </trkpt>
      <trkpt lat="45.33438" lon="5.52308">
        <ele>365.76</ele>
        <time>2021-04-27T09:13:01Z</time>
      </trkpt>
      <trkpt lat="45.33486" lon="5.52349">
        <ele>367.63</ele>
        <time>2021-04-27T09:13:19Z</time>
      </trkpt>
      <trkpt lat="45.33552" lon="5.52399">
        <ele>370.21</ele>
        <time>2021-04-27T09:13:42Z</time>
      </trkpt>
      <trkpt lat="45.3362" lon="5.5245">
        <ele>372.56</ele>
        <time>2021-04-27T09:14:06Z</time>
      </trkpt>
      <trkpt lat="45.3367" lon="5.52486">
        <ele>373.83</ele>
        <time>2021-04-27T09:14:23Z</time>
      </trkpt>
      <trkpt lat="45.33681" lon="5.52477">
        <ele>374.06</ele>
        <time>2021-04-27T09:14:27Z</time>
      </trkpt>
      <trkpt lat="45.33682" lon="5.52473">
        <ele>374.13</ele>
        <time>2021-04-27T09:14:28Z</time>
      </trkpt>
      <trkpt lat="45.33682" lon="5.52468">
        <ele>374.2</ele>
        <time>2021-04-27T09:14:29Z</time>
      </trkpt>
      <trkpt lat="45.33672" lon="5.52391">
        <ele>376.33</ele>
        <time>2021-04-27T09:14:47Z</time>
      </trkpt>
      <trkpt lat="45.3362" lon="5.52327">
        <ele>376.14</ele>
        <time>2021-04-27T09:15:05Z</time>
      </trkpt>
      <trkpt lat="45.3358" lon="5.52278">
        <ele>375.76</ele>
        <time>2021-04-27T09:15:20Z</time>
      </trkpt>
      <trkpt lat="45.33515" lon="5.52195">
        <ele>377.65</ele>
        <time>2021-04-27T09:15:43Z</time>
      </trkpt>
      <trkpt lat="45.33456" lon="5.52126">
        <ele>378.76</ele>
        <time>2021-04-27T09:16:04Z</time>
      </trkpt>
      <trkpt lat="45.33404" lon="5.5205">
        <ele>376.69</ele>
        <time>2021-04-27T09:16:20Z</time>
      </trkpt>
      <trkpt lat="45.33386" lon="5.52022">
        <ele>375.05</ele>
        <time>2021-04-27T09:16:24Z</time>
      </trkpt>
      <trkpt lat="45.33381" lon="5.52014">
        <ele>374.61</ele>
        <time>2021-04-27T09:16:25Z</time>
      </trkpt>
      <trkpt lat="45.33351" lon="5.51968">
        <ele>371.53</ele>
        <time>2021-04-27T09:16:31Z</time>
      </trkpt>
      <trkpt lat="45.33346" lon="5.5196">
        <ele>371.19</ele>
        <time>2021-04-27T09:16:32Z</time>
      </trkpt>
      <trkpt lat="45.33341" lon="5.51953">
        <ele>370.84</ele>
        <time>2021-04-27T09:16:33Z</time>
      </trkpt>
      <trkpt lat="45.33336" lon="5.51946">
        <ele>370.47</ele>
        <time>2021-04-27T09:16:34Z</time>
      </trkpt>
      <trkpt lat="45.3327" lon="5.51844">
        <ele>367.39</ele>
        <time>2021-04-27T09:16:49Z</time>
      </trkpt>
      <trkpt lat="45.33198" lon="5.51732">
        <ele>365.17</ele>
        <time>2021-04-27T09:17:07Z</time>
      </trkpt>
      <trkpt lat="45.33188" lon="5.51716">
        <ele>364.38</ele>
        <time>2021-04-27T09:17:09Z</time>
      </trkpt>
      <trkpt lat="45.33185" lon="5.51707">
        <ele>363.94</ele>
        <time>2021-04-27T09:17:10Z</time>
      </trkpt>
      <trkpt lat="45.33181" lon="5.51697">
        <ele>363.4</ele>
        <time>2021-04-27T09:17:11Z</time>
      </trkpt>
      <trkpt lat="45.33176" lon="5.51676">
        <ele>361.6</ele>
        <time>2021-04-27T09:17:13Z</time>
      </trkpt>
      <trkpt lat="45.33172" lon="5.51665">
        <ele>360.89</ele>
        <time>2021-04-27T09:17:14Z</time>
      </trkpt>
      <trkpt lat="45.33154" lon="5.51607">
        <ele>357.15</ele>
        <time>2021-04-27T09:17:19Z</time>
      </trkpt>
      <trkpt lat="45.33134" lon="5.51545">
        <ele>353.9</ele>
        <time>2021-04-27T09:17:25Z</time>
      </trkpt>
      <trkpt lat="45.3311" lon="5.51465">
        <ele>352.4</ele>
        <time>2021-04-27T09:17:34Z</time>
      </trkpt>
      <trkpt lat="45.33108" lon="5.51455">
        <ele>352.16</ele>
        <time>2021-04-27T09:17:35Z</time>
      </trkpt>
      <trkpt lat="45.33108" lon="5.51445">
        <ele>351.36</ele>
        <time>2021-04-27T09:17:36Z</time>
      </trkpt>
      <trkpt lat="45.33109" lon="5.51434">
        <ele>350.78</ele>
        <time>2021-04-27T09:17:37Z</time>
      </trkpt>
      <trkpt lat="45.33111" lon="5.51424">
        <ele>350.22</ele>
        <time>2021-04-27T09:17:38Z</time>
      </trkpt>
      <trkpt lat="45.33113" lon="5.51416">
        <ele>349.77</ele>
        <time>2021-04-27T09:17:39Z</time>
      </trkpt>
      <trkpt lat="45.33128" lon="5.51361">
        <ele>349.83</ele>
        <time>2021-04-27T09:17:49Z</time>
      </trkpt>
      <trkpt lat="45.33147" lon="5.51273">
        <ele>352.91</ele>
        <time>2021-04-27T09:18:09Z</time>
      </trkpt>
      <trkpt lat="45.33168" lon="5.51219">
        <ele>355.64</ele>
        <time>2021-04-27T09:18:26Z</time>
      </trkpt>
      <trkpt lat="45.33197" lon="5.51174">
        <ele>358.83</ele>
        <time>2021-04-27T09:18:43Z</time>
      </trkpt>
      <trkpt lat="45.3322" lon="5.51136">
        <ele>361.04</ele>
        <time>2021-04-27T09:18:56Z</time>
      </trkpt>
      <trkpt lat="45.33246" lon="5.51071">
        <ele>362.02</ele>
        <time>2021-04-27T09:19:12Z</time>
      </trkpt>
      <trkpt lat="45.33246" lon="5.51067">
        <ele>362.11</ele>
        <time>2021-04-27T09:19:13Z</time>
      </trkpt>
      <trkpt lat="45.33244" lon="5.51063">
        <ele>362.18</ele>
        <time>2021-04-27T09:19:14Z</time>
      </trkpt>
      <trkpt lat="45.33242" lon="5.5106">
        <ele>362.23</ele>
        <time>2021-04-27T09:19:15Z</time>
      </trkpt>
      <trkpt lat="45.33239" lon="5.51058">
        <ele>362.29</ele>
        <time>2021-04-27T09:19:16Z</time>
      </trkpt>
      <trkpt lat="45.33236" lon="5.51056">
        <ele>362.35</ele>
        <time>2021-04-27T09:19:17Z</time>
      </trkpt>
      <trkpt lat="45.33233" lon="5.51054">
        <ele>362.4</ele>
        <time>2021-04-27T09:19:18Z</time>
      </trkpt>
      <trkpt lat="45.3323" lon="5.51053">
        <ele>362.44</ele>
        <time>2021-04-27T09:19:19Z</time>
      </trkpt>
      <trkpt lat="45.33171" lon="5.51036">
        <ele>362.25</ele>
        <time>2021-04-27T09:19:36Z</time>
      </trkpt>
      <trkpt lat="45.33134" lon="5.51022">
        <ele>361.96</ele>
        <time>2021-04-27T09:19:50Z</time>
      </trkpt>
      <trkpt lat="45.33133" lon="5.5102">
        <ele>361.97</ele>
        <time>2021-04-27T09:19:51Z</time>
      </trkpt>
      <trkpt lat="45.33132" lon="5.51015">
        <ele>362.04</ele>
        <time>2021-04-27T09:19:54Z</time>
      </trkpt>
      <trkpt lat="45.33133" lon="5.5101">
        <ele>362.52</ele>
        <time>2021-04-27T09:19:57Z</time>
      </trkpt>
      <trkpt lat="45.33134" lon="5.50979">
        <ele>365.89</ele>
        <time>2021-04-27T09:20:12Z</time>
      </trkpt>
      <trkpt lat="45.33136" lon="5.50956">
        <ele>369.02</ele>
        <time>2021-04-27T09:20:25Z</time>
      </trkpt>
      <trkpt lat="45.33138" lon="5.50919">
        <ele>372.03</ele>
        <time>2021-04-27T09:20:42Z</time>
      </trkpt>
      <trkpt lat="45.33137" lon="5.50873">
        <ele>374.15</ele>
        <time>2021-04-27T09:21:00Z</time>
      </trkpt>
      <trkpt lat="45.33127" lon="5.50832">
        <ele>372.94</ele>
        <time>2021-04-27T09:21:10Z</time>
      </trkpt>
      <trkpt lat="45.33125" lon="5.50795">
        <ele>369.86</ele>
        <time>2021-04-27T09:21:14Z</time>
      </trkpt>
      <trkpt lat="45.33128" lon="5.50767">
        <ele>367.34</ele>
        <time>2021-04-27T09:21:17Z</time>
      </trkpt>
      <trkpt lat="45.33129" lon="5.50737">
        <ele>366.01</ele>
        <time>2021-04-27T09:21:20Z</time>
      </trkpt>
      <trkpt lat="45.33129" lon="5.5072">
        <ele>365.63</ele>
        <time>2021-04-27T09:21:22Z</time>
      </trkpt>
      <trkpt lat="45.33128" lon="5.50692">
        <ele>365.21</ele>
        <time>2021-04-27T09:21:26Z</time>
      </trkpt>
      <trkpt lat="45.33137" lon="5.50669">
        <ele>365.77</ele>
        <time>2021-04-27T09:21:32Z</time>
      </trkpt>
      <trkpt lat="45.3314" lon="5.50666">
        <ele>365.9</ele>
        <time>2021-04-27T09:21:33Z</time>
      </trkpt>
      <trkpt lat="45.33158" lon="5.50664">
        <ele>366.4</ele>
        <time>2021-04-27T09:21:38Z</time>
      </trkpt>
      <trkpt lat="45.33208" lon="5.5068">
        <ele>365.39</ele>
        <time>2021-04-27T09:21:51Z</time>
      </trkpt>
      <trkpt lat="45.33236" lon="5.50695">
        <ele>365.61</ele>
        <time>2021-04-27T09:22:01Z</time>
      </trkpt>
      <trkpt lat="45.33276" lon="5.50719">
        <ele>366.89</ele>
        <time>2021-04-27T09:22:14Z</time>
      </trkpt>
      <trkpt lat="45.33322" lon="5.50742">
        <ele>367.68</ele>
        <time>2021-04-27T09:22:28Z</time>
      </trkpt>
      <trkpt lat="45.33365" lon="5.50773">
        <ele>366.07</ele>
        <time>2021-04-27T09:22:41Z</time>
      </trkpt>
      <trkpt lat="45.33427" lon="5.50809">
        <ele>363.27</ele>
        <time>2021-04-27T09:22:54Z</time>
      </trkpt>
      <trkpt lat="45.33479" lon="5.50828">
        <ele>362.55</ele>
        <time>2021-04-27T09:23:07Z</time>
      </trkpt>
      <trkpt lat="45.33483" lon="5.5083">
        <ele>362.41</ele>
        <time>2021-04-27T09:23:08Z</time>
      </trkpt>
      <trkpt lat="45.33518" lon="5.50848">
        <ele>360.62</ele>
        <time>2021-04-27T09:23:14Z</time>
      </trkpt>
      <trkpt lat="45.33539" lon="5.50864">
        <ele>359.12</ele>
        <time>2021-04-27T09:23:17Z</time>
      </trkpt>
      <trkpt lat="45.33564" lon="5.50888">
        <ele>357.26</ele>
        <time>2021-04-27T09:23:21Z</time>
      </trkpt>
      <trkpt lat="45.3357" lon="5.50891">
        <ele>356.89</ele>
        <time>2021-04-27T09:23:22Z</time>
      </trkpt>
      <trkpt lat="45.33577" lon="5.50892">
        <ele>356.59</ele>
        <time>2021-04-27T09:23:23Z</time>
      </trkpt>
      <trkpt lat="45.33585" lon="5.50892">
        <ele>356.3</ele>
        <time>2021-04-27T09:23:24Z</time>
      </trkpt>
      <trkpt lat="45.33591" lon="5.50892">
        <ele>355.99</ele>
        <time>2021-04-27T09:23:25Z</time>
      </trkpt>
      <trkpt lat="45.33597" lon="5.50897">
        <ele>355.68</ele>
        <time>2021-04-27T09:23:26Z</time>
      </trkpt>
      <trkpt lat="45.336" lon="5.50904">
        <ele>355.4</ele>
        <time>2021-04-27T09:23:27Z</time>
      </trkpt>
      <trkpt lat="45.33602" lon="5.50912">
        <ele>355.15</ele>
        <time>2021-04-27T09:23:28Z</time>
      </trkpt>
      <trkpt lat="45.33603" lon="5.5092">
        <ele>354.93</ele>
        <time>2021-04-27T09:23:29Z</time>
      </trkpt>
      <trkpt lat="45.33603" lon="5.50928">
        <ele>354.65</ele>
        <time>2021-04-27T09:23:30Z</time>
      </trkpt>
      <trkpt lat="45.33604" lon="5.50935">
        <ele>354.55</ele>
        <time>2021-04-27T09:23:31Z</time>
      </trkpt>
      <trkpt lat="45.33622" lon="5.50985">
        <ele>355.9</ele>
        <time>2021-04-27T09:23:42Z</time>
      </trkpt>
      <trkpt lat="45.33628" lon="5.51022">
        <ele>358.99</ele>
        <time>2021-04-27T09:23:54Z</time>
      </trkpt>
      <trkpt lat="45.33623" lon="5.51087">
        <ele>360.92</ele>
        <time>2021-04-27T09:24:11Z</time>
      </trkpt>
      <trkpt lat="45.33637" lon="5.51138">
        <ele>362.57</ele>
        <time>2021-04-27T09:24:25Z</time>
      </trkpt>
      <trkpt lat="45.33661" lon="5.51199">
        <ele>365.18</ele>
        <time>2021-04-27T09:24:43Z</time>
      </trkpt>
      <trkpt lat="45.33685" lon="5.5126">
        <ele>367.69</ele>
        <time>2021-04-27T09:25:00Z</time>
      </trkpt>
      <trkpt lat="45.33714" lon="5.51322">
        <ele>370.28</ele>
        <time>2021-04-27T09:25:20Z</time>
      </trkpt>
      <trkpt lat="45.33748" lon="5.51395">
        <ele>373.34</ele>
        <time>2021-04-27T09:25:42Z</time>
      </trkpt>
      <trkpt lat="45.33785" lon="5.51463">
        <ele>375.42</ele>
        <time>2021-04-27T09:26:02Z</time>
      </trkpt>
      <trkpt lat="45.33785" lon="5.51467">
        <ele>375.47</ele>
        <time>2021-04-27T09:26:03Z</time>
      </trkpt>
      <trkpt lat="45.33784" lon="5.51469">
        <ele>375.48</ele>
        <time>2021-04-27T09:26:04Z</time>
      </trkpt>
      <trkpt lat="45.33781" lon="5.5147">
        <ele>375.45</ele>
        <time>2021-04-27T09:26:05Z</time>
      </trkpt>
      <trkpt lat="45.33778" lon="5.51469">
        <ele>375.36</ele>
        <time>2021-04-27T09:26:06Z</time>
      </trkpt>
      <trkpt lat="45.33774" lon="5.51468">
        <ele>375.2</ele>
        <time>2021-04-27T09:26:07Z</time>
      </trkpt>
      <trkpt lat="45.33771" lon="5.51466">
        <ele>375.01</ele>
        <time>2021-04-27T09:26:08Z</time>
      </trkpt>
      <trkpt lat="45.33767" lon="5.51465">
        <ele>374.85</ele>
        <time>2021-04-27T09:26:09Z</time>
      </trkpt>
      <trkpt lat="45.33762" lon="5.51463">
        <ele>374.68</ele>
        <time>2021-04-27T09:26:10Z</time>
      </trkpt>
      <trkpt lat="45.33704" lon="5.5143">
        <ele>371.66</ele>
        <time>2021-04-27T09:26:22Z</time>
      </trkpt>
      <trkpt lat="45.33658" lon="5.51408">
        <ele>371.46</ele>
        <time>2021-04-27T09:26:34Z</time>
      </trkpt>
      <trkpt lat="45.33625" lon="5.51402">
        <ele>372.74</ele>
        <time>2021-04-27T09:26:44Z</time>
      </trkpt>
      <trkpt lat="45.33591" lon="5.51391">
        <ele>375.61</ele>
        <time>2021-04-27T09:26:57Z</time>
      </trkpt>
      <trkpt lat="45.33581" lon="5.51389">
        <ele>376.76</ele>
        <time>2021-04-27T09:27:02Z</time>
      </trkpt>
      <trkpt lat="45.33578" lon="5.51389">
        <ele>376.96</ele>
        <time>2021-04-27T09:27:03Z</time>
      </trkpt>
      <trkpt lat="45.33575" lon="5.51388">
        <ele>377.15</ele>
        <time>2021-04-27T09:27:04Z</time>
      </trkpt>
      <trkpt lat="45.33542" lon="5.51369">
        <ele>379.28</ele>
        <time>2021-04-27T09:27:16Z</time>
      </trkpt>
      <trkpt lat="45.33497" lon="5.51354">
        <ele>378.47</ele>
        <time>2021-04-27T09:27:30Z</time>
      </trkpt>
      <trkpt lat="45.33463" lon="5.51328">
        <ele>377.03</ele>
        <time>2021-04-27T09:27:39Z</time>
      </trkpt>
      <trkpt lat="45.33459" lon="5.51325">
        <ele>376.91</ele>
        <time>2021-04-27T09:27:40Z</time>
      </trkpt>
      <trkpt lat="45.3345" lon="5.51318">
        <ele>376.53</ele>
        <time>2021-04-27T09:27:42Z</time>
      </trkpt>
      <trkpt lat="45.33446" lon="5.51315">
        <ele>376.35</ele>
        <time>2021-04-27T09:27:43Z</time>
      </trkpt>
      <trkpt lat="45.33416" lon="5.51298">
        <ele>374.93</ele>
        <time>2021-04-27T09:27:48Z</time>
      </trkpt>
      <trkpt lat="45.33408" lon="5.51297">
        <ele>374.45</ele>
        <time>2021-04-27T09:27:49Z</time>
      </trkpt>
      <trkpt lat="45.334" lon="5.51298">
        <ele>373.87</ele>
        <time>2021-04-27T09:27:50Z</time>
      </trkpt>
      <trkpt lat="45.33392" lon="5.51301">
        <ele>373.28</ele>
        <time>2021-04-27T09:27:51Z</time>
      </trkpt>
      <trkpt lat="45.33385" lon="5.51306">
        <ele>372.63</ele>
        <time>2021-04-27T09:27:52Z</time>
      </trkpt>
      <trkpt lat="45.33377" lon="5.51312">
        <ele>371.81</ele>
        <time>2021-04-27T09:27:53Z</time>
      </trkpt>
      <trkpt lat="45.33371" lon="5.5132">
        <ele>370.89</ele>
        <time>2021-04-27T09:27:54Z</time>
      </trkpt>
      <trkpt lat="45.33365" lon="5.51328">
        <ele>370.02</ele>
        <time>2021-04-27T09:27:55Z</time>
      </trkpt>
      <trkpt lat="45.33359" lon="5.51335">
        <ele>369.26</ele>
        <time>2021-04-27T09:27:56Z</time>
      </trkpt>
      <trkpt lat="45.33353" lon="5.51342">
        <ele>368.63</ele>
        <time>2021-04-27T09:27:57Z</time>
      </trkpt>
      <trkpt lat="45.33348" lon="5.51349">
        <ele>368.13</ele>
        <time>2021-04-27T09:27:58Z</time>
      </trkpt>
      <trkpt lat="45.33338" lon="5.51363">
        <ele>367.45</ele>
        <time>2021-04-27T09:28:00Z</time>
      </trkpt>
      <trkpt lat="45.33333" lon="5.51367">
        <ele>367.26</ele>
        <time>2021-04-27T09:28:01Z</time>
      </trkpt>
      <trkpt lat="45.33294" lon="5.51403">
        <ele>367.8</ele>
        <time>2021-04-27T09:28:09Z</time>
      </trkpt>
      <trkpt lat="45.33277" lon="5.51422">
        <ele>366.92</ele>
        <time>2021-04-27T09:28:12Z</time>
      </trkpt>
      <trkpt lat="45.33259" lon="5.51437">
        <ele>365.55</ele>
        <time>2021-04-27T09:28:15Z</time>
      </trkpt>
      <trkpt lat="45.33255" lon="5.51442">
        <ele>365.1</ele>
        <time>2021-04-27T09:28:16Z</time>
      </trkpt>
      <trkpt lat="45.33253" lon="5.51448">
        <ele>364.69</ele>
        <time>2021-04-27T09:28:17Z</time>
      </trkpt>
      <trkpt lat="45.33252" lon="5.51453">
        <ele>364.36</ele>
        <time>2021-04-27T09:28:18Z</time>
      </trkpt>
      <trkpt lat="45.33254" lon="5.51456">
        <ele>364.1</ele>
        <time>2021-04-27T09:28:19Z</time>
      </trkpt>
      <trkpt lat="45.33256" lon="5.51456">
        <ele>363.94</ele>
        <time>2021-04-27T09:28:20Z</time>
      </trkpt>
      <trkpt lat="45.33259" lon="5.51456">
        <ele>363.91</ele>
        <time>2021-04-27T09:28:21Z</time>
      </trkpt>
      <trkpt lat="45.33261" lon="5.51457">
        <ele>363.99</ele>
        <time>2021-04-27T09:28:22Z</time>
      </trkpt>
      <trkpt lat="45.33264" lon="5.51458">
        <ele>364.13</ele>
        <time>2021-04-27T09:28:23Z</time>
      </trkpt>
      <trkpt lat="45.33296" lon="5.51472">
        <ele>365.7</ele>
        <time>2021-04-27T09:28:34Z</time>
      </trkpt>
      <trkpt lat="45.33333" lon="5.51501">
        <ele>366.83</ele>
        <time>2021-04-27T09:28:46Z</time>
      </trkpt>
      <trkpt lat="45.33363" lon="5.5154">
        <ele>367.63</ele>
        <time>2021-04-27T09:28:58Z</time>
      </trkpt>
      <trkpt lat="45.33404" lon="5.51571">
        <ele>368.87</ele>
        <time>2021-04-27T09:29:11Z</time>
      </trkpt>
      <trkpt lat="45.33431" lon="5.51606">
        <ele>369.33</ele>
        <time>2021-04-27T09:29:21Z</time>
      </trkpt>
      <trkpt lat="45.33446" lon="5.51652">
        <ele>369.98</ele>
        <time>2021-04-27T09:29:31Z</time>
      </trkpt>
      <trkpt lat="45.33469" lon="5.51723">
        <ele>371.51</ele>
        <time>2021-04-27T09:29:45Z</time>
      </trkpt>
      <trkpt lat="45.33491" lon="5.51785">
        <ele>372.84</ele>
        <time>2021-04-27T09:29:59Z</time>
      </trkpt>
      <trkpt lat="45.33531" lon="5.51879">
        <ele>374.25</ele>
        <time>2021-04-27T09:30:20Z</time>
      </trkpt>
      <trkpt lat="45.33544" lon="5.51922">
        <ele>375.78</ele>
        <time>2021-04-27T09:30:31Z</time>
      </trkpt>
      <trkpt lat="45.33543" lon="5.51923">
        <ele>375.96</ele>
        <time>2021-04-27T09:30:32Z</time>
      </trkpt>
      <trkpt lat="45.33541" lon="5.51924">
        <ele>376.15</ele>
        <time>2021-04-27T09:30:33Z</time>
      </trkpt>
      <trkpt lat="45.33523" lon="5.51934">
        <ele>377.99</ele>
        <time>2021-04-27T09:30:42Z</time>
      </trkpt>
      <trkpt lat="45.33522" lon="5.51938">
        <ele>378.11</ele>
        <time>2021-04-27T09:30:43Z</time>
      </trkpt>
      <trkpt lat="45.33522" lon="5.51941">
        <ele>378.23</ele>
        <time>2021-04-27T09:30:44Z</time>
      </trkpt>
      <trkpt lat="45.33523" lon="5.51944">
        <ele>378.36</ele>
        <time>2021-04-27T09:30:45Z</time>
      </trkpt>
      <trkpt lat="45.33524" lon="5.51947">
        <ele>378.49</ele>
        <time>2021-04-27T09:30:46Z</time>
      </trkpt>
      <trkpt lat="45.33525" lon="5.51949">
        <ele>378.63</ele>
        <time>2021-04-27T09:30:47Z</time>
      </trkpt>
      <trkpt lat="45.33526" lon="5.51953">
        <ele>378.77</ele>
        <time>2021-04-27T09:30:48Z</time>
      </trkpt>
      <trkpt lat="45.33527" lon="5.51955">
        <ele>378.96</ele>
        <time>2021-04-27T09:30:49Z</time>
      </trkpt>
      <trkpt lat="45.33528" lon="5.51958">
        <ele>379.18</ele>
        <time>2021-04-27T09:30:50Z</time>
      </trkpt>
      <trkpt lat="45.3353" lon="5.5196">
        <ele>379.37</ele>
        <time>2021-04-27T09:30:51Z</time>
      </trkpt>
      <trkpt lat="45.33532" lon="5.51963">
        <ele>379.55</ele>
        <time>2021-04-27T09:30:52Z</time>
      </trkpt>
      <trkpt lat="45.33533" lon="5.51966">
        <ele>379.72</ele>
        <time>2021-04-27T09:30:53Z</time>
      </trkpt>
      <trkpt lat="45.33534" lon="5.5197">
        <ele>379.88</ele>
        <time>2021-04-27T09:30:54Z</time>
      </trkpt>
      <trkpt lat="45.33554" lon="5.52007">
        <ele>381.53</ele>
        <time>2021-04-27T09:31:05Z</time>
      </trkpt>
      <trkpt lat="45.33582" lon="5.5205">
        <ele>382.14</ele>
        <time>2021-04-27T09:31:16Z</time>
      </trkpt>
      <trkpt lat="45.33622" lon="5.52111">
        <ele>381.51</ele>
        <time>2021-04-27T09:31:31Z</time>
      </trkpt>
      <trkpt lat="45.33664" lon="5.52161">
        <ele>381.92</ele>
        <time>2021-04-27T09:31:46Z</time>
      </trkpt>
      <trkpt lat="45.33668" lon="5.52166">
        <ele>382.53</ele>
        <time>2021-04-27T09:31:57Z</time>
      </trkpt>
      <trkpt lat="45.33683" lon="5.52193">
        <ele>382.81</ele>
        <time>2021-04-27T09:32:09Z</time>
      </trkpt>
      <trkpt lat="45.33721" lon="5.52225">
        <ele>383.51</ele>
        <time>2021-04-27T09:32:22Z</time>
      </trkpt>
      <trkpt lat="45.33759" lon="5.52249">
        <ele>384.65</ele>
        <time>2021-04-27T09:32:35Z</time>
      </trkpt>
      <trkpt lat="45.33785" lon="5.52238">
        <ele>384.93</ele>
        <time>2021-04-27T09:32:44Z</time>
      </trkpt>
      <trkpt lat="45.33794" lon="5.52232">
        <ele>384.56</ele>
        <time>2021-04-27T09:32:46Z</time>
      </trkpt>
      <trkpt lat="45.33799" lon="5.5223">
        <ele>384.32</ele>
        <time>2021-04-27T09:32:47Z</time>
      </trkpt>
      <trkpt lat="45.33805" lon="5.52231">
        <ele>384.06</ele>
        <time>2021-04-27T09:32:48Z</time>
      </trkpt>
      <trkpt lat="45.3381" lon="5.52233">
        <ele>383.81</ele>
        <time>2021-04-27T09:32:49Z</time>
      </trkpt>
      <trkpt lat="45.33815" lon="5.52236">
        <ele>383.59</ele>
        <time>2021-04-27T09:32:50Z</time>
      </trkpt>
      <trkpt lat="45.33819" lon="5.52239">
        <ele>383.39</ele>
        <time>2021-04-27T09:32:51Z</time>
      </trkpt>
      <trkpt lat="45.33823" lon="5.52244">
        <ele>383.23</ele>
        <time>2021-04-27T09:32:52Z</time>
      </trkpt>
      <trkpt lat="45.33827" lon="5.52247">
        <ele>383.09</ele>
        <time>2021-04-27T09:32:53Z</time>
      </trkpt>
      <trkpt lat="45.33831" lon="5.52251">
        <ele>382.98</ele>
        <time>2021-04-27T09:32:54Z</time>
      </trkpt>
      <trkpt lat="45.33834" lon="5.52254">
        <ele>382.88</ele>
        <time>2021-04-27T09:32:55Z</time>
      </trkpt>
      <trkpt lat="45.33852" lon="5.52276">
        <ele>382.64</ele>
        <time>2021-04-27T09:33:01Z</time>
      </trkpt>
      <trkpt lat="45.33858" lon="5.52284">
        <ele>382.65</ele>
        <time>2021-04-27T09:33:03Z</time>
      </trkpt>
      <trkpt lat="45.33861" lon="5.52288">
        <ele>382.65</ele>
        <time>2021-04-27T09:33:04Z</time>
      </trkpt>
      <trkpt lat="45.33899" lon="5.52355">
        <ele>383.9</ele>
        <time>2021-04-27T09:33:19Z</time>
      </trkpt>
      <trkpt lat="45.33943" lon="5.52409">
        <ele>385.46</ele>
        <time>2021-04-27T09:33:34Z</time>
      </trkpt>
      <trkpt lat="45.33986" lon="5.5246">
        <ele>386.38</ele>
        <time>2021-04-27T09:33:48Z</time>
      </trkpt>
      <trkpt lat="45.34015" lon="5.52522">
        <ele>387.51</ele>
        <time>2021-04-27T09:34:01Z</time>
      </trkpt>
      <trkpt lat="45.3405" lon="5.52557">
        <ele>388.69</ele>
        <time>2021-04-27T09:34:12Z</time>
      </trkpt>
      <trkpt lat="45.34089" lon="5.52593">
        <ele>389.93</ele>
        <time>2021-04-27T09:34:25Z</time>
      </trkpt>
      <trkpt lat="45.34133" lon="5.52635">
        <ele>392.3</ele>
        <time>2021-04-27T09:34:42Z</time>
      </trkpt>
      <trkpt lat="45.34181" lon="5.52669">
        <ele>392.98</ele>
        <time>2021-04-27T09:34:58Z</time>
      </trkpt>
      <trkpt lat="45.34226" lon="5.52704">
        <ele>392.14</ele>
        <time>2021-04-27T09:35:11Z</time>
      </trkpt>
      <trkpt lat="45.34228" lon="5.52709">
        <ele>392.05</ele>
        <time>2021-04-27T09:35:12Z</time>
      </trkpt>
      <trkpt lat="45.34248" lon="5.52746">
        <ele>391.77</ele>
        <time>2021-04-27T09:35:20Z</time>
      </trkpt>
      <trkpt lat="45.34291" lon="5.52777">
        <ele>392.08</ele>
        <time>2021-04-27T09:35:33Z</time>
      </trkpt>
      <trkpt lat="45.34309" lon="5.52782">
        <ele>391.88</ele>
        <time>2021-04-27T09:35:37Z</time>
      </trkpt>
      <trkpt lat="45.34335" lon="5.52796">
        <ele>389.57</ele>
        <time>2021-04-27T09:35:44Z</time>
      </trkpt>
      <trkpt lat="45.34335" lon="5.52802">
        <ele>389.21</ele>
        <time>2021-04-27T09:35:45Z</time>
      </trkpt>
      <trkpt lat="45.34334" lon="5.52807">
        <ele>388.86</ele>
        <time>2021-04-27T09:35:46Z</time>
      </trkpt>
      <trkpt lat="45.34332" lon="5.52814">
        <ele>388.54</ele>
        <time>2021-04-27T09:35:47Z</time>
      </trkpt>
      <trkpt lat="45.3433" lon="5.5282">
        <ele>388.24</ele>
        <time>2021-04-27T09:35:48Z</time>
      </trkpt>
      <trkpt lat="45.34328" lon="5.52826">
        <ele>387.91</ele>
        <time>2021-04-27T09:35:49Z</time>
      </trkpt>
      <trkpt lat="45.34325" lon="5.52832">
        <ele>387.55</ele>
        <time>2021-04-27T09:35:50Z</time>
      </trkpt>
      <trkpt lat="45.34321" lon="5.52839">
        <ele>387.2</ele>
        <time>2021-04-27T09:35:51Z</time>
      </trkpt>
      <trkpt lat="45.34278" lon="5.52891">
        <ele>383.79</ele>
        <time>2021-04-27T09:35:59Z</time>
      </trkpt>
      <trkpt lat="45.34232" lon="5.52948">
        <ele>381.51</ele>
        <time>2021-04-27T09:36:08Z</time>
      </trkpt>
      <trkpt lat="45.34232" lon="5.52956">
        <ele>381.41</ele>
        <time>2021-04-27T09:36:09Z</time>
      </trkpt>
      <trkpt lat="45.34233" lon="5.52964">
        <ele>381.3</ele>
        <time>2021-04-27T09:36:10Z</time>
      </trkpt>
      <trkpt lat="45.34237" lon="5.5297">
        <ele>381.2</ele>
        <time>2021-04-27T09:36:11Z</time>
      </trkpt>
      <trkpt lat="45.34241" lon="5.52977">
        <ele>381.05</ele>
        <time>2021-04-27T09:36:12Z</time>
      </trkpt>
      <trkpt lat="45.34244" lon="5.52984">
        <ele>380.84</ele>
        <time>2021-04-27T09:36:13Z</time>
      </trkpt>
      <trkpt lat="45.34247" lon="5.52991">
        <ele>380.61</ele>
        <time>2021-04-27T09:36:14Z</time>
      </trkpt>
      <trkpt lat="45.3425" lon="5.52997">
        <ele>380.42</ele>
        <time>2021-04-27T09:36:15Z</time>
      </trkpt>
      <trkpt lat="45.34294" lon="5.53087">
        <ele>378.36</ele>
        <time>2021-04-27T09:36:28Z</time>
      </trkpt>
      <trkpt lat="45.34347" lon="5.5321">
        <ele>375.69</ele>
        <time>2021-04-27T09:36:46Z</time>
      </trkpt>
      <trkpt lat="45.34352" lon="5.5324">
        <ele>375.24</ele>
        <time>2021-04-27T09:36:50Z</time>
      </trkpt>
      <trkpt lat="45.34354" lon="5.53248">
        <ele>375.1</ele>
        <time>2021-04-27T09:36:51Z</time>
      </trkpt>
      <trkpt lat="45.34354" lon="5.53257">
        <ele>374.96</ele>
        <time>2021-04-27T09:36:52Z</time>
      </trkpt>
      <trkpt lat="45.34354" lon="5.53264">
        <ele>374.82</ele>
        <time>2021-04-27T09:36:53Z</time>
      </trkpt>
      <trkpt lat="45.34352" lon="5.53271">
        <ele>374.48</ele>
        <time>2021-04-27T09:36:54Z</time>
      </trkpt>
      <trkpt lat="45.34349" lon="5.53277">
        <ele>374.29</ele>
        <time>2021-04-27T09:36:55Z</time>
      </trkpt>
      <trkpt lat="45.34346" lon="5.53282">
        <ele>374.11</ele>
        <time>2021-04-27T09:36:56Z</time>
      </trkpt>
      <trkpt lat="45.34323" lon="5.53311">
        <ele>373.65</ele>
        <time>2021-04-27T09:37:03Z</time>
      </trkpt>
      <trkpt lat="45.34311" lon="5.5332">
        <ele>373.59</ele>
        <time>2021-04-27T09:37:06Z</time>
      </trkpt>
      <trkpt lat="45.34307" lon="5.53323">
        <ele>373.52</ele>
        <time>2021-04-27T09:37:07Z</time>
      </trkpt>
      <trkpt lat="45.34287" lon="5.53339">
        <ele>372.81</ele>
        <time>2021-04-27T09:37:12Z</time>
      </trkpt>
      <trkpt lat="45.34243" lon="5.53402">
        <ele>369.23</ele>
        <time>2021-04-27T09:37:21Z</time>
      </trkpt>
      <trkpt lat="45.34209" lon="5.53442">
        <ele>365.41</ele>
        <time>2021-04-27T09:37:26Z</time>
      </trkpt>
      <trkpt lat="45.34184" lon="5.53476">
        <ele>362.38</ele>
        <time>2021-04-27T09:37:30Z</time>
      </trkpt>
      <trkpt lat="45.34174" lon="5.53495">
        <ele>361.34</ele>
        <time>2021-04-27T09:37:32Z</time>
      </trkpt>
      <trkpt lat="45.3417" lon="5.53505">
        <ele>360.96</ele>
        <time>2021-04-27T09:37:33Z</time>
      </trkpt>
      <trkpt lat="45.34162" lon="5.53533">
        <ele>360.25</ele>
        <time>2021-04-27T09:37:36Z</time>
      </trkpt>
      <trkpt lat="45.34162" lon="5.53542">
        <ele>360.12</ele>
        <time>2021-04-27T09:37:37Z</time>
      </trkpt>
      <trkpt lat="45.34163" lon="5.53551">
        <ele>360.02</ele>
        <time>2021-04-27T09:37:38Z</time>
      </trkpt>
      <trkpt lat="45.34165" lon="5.53558">
        <ele>359.96</ele>
        <time>2021-04-27T09:37:39Z</time>
      </trkpt>
      <trkpt lat="45.34168" lon="5.53565">
        <ele>359.98</ele>
        <time>2021-04-27T09:37:40Z</time>
      </trkpt>
      <trkpt lat="45.34171" lon="5.53572">
        <ele>360.1</ele>
        <time>2021-04-27T09:37:41Z</time>
      </trkpt>
      <trkpt lat="45.34205" lon="5.53646">
        <ele>360.92</ele>
        <time>2021-04-27T09:37:52Z</time>
      </trkpt>
      <trkpt lat="45.34222" lon="5.53698">
        <ele>361.35</ele>
        <time>2021-04-27T09:38:00Z</time>
      </trkpt>
      <trkpt lat="45.34253" lon="5.53798">
        <ele>363.03</ele>
        <time>2021-04-27T09:38:18Z</time>
      </trkpt>
      <trkpt lat="45.34258" lon="5.53809">
        <ele>362.96</ele>
        <time>2021-04-27T09:38:20Z</time>
      </trkpt>
      <trkpt lat="45.34261" lon="5.53813">
        <ele>362.85</ele>
        <time>2021-04-27T09:38:21Z</time>
      </trkpt>
      <trkpt lat="45.34271" lon="5.53822">
        <ele>362.57</ele>
        <time>2021-04-27T09:38:24Z</time>
      </trkpt>
      <trkpt lat="45.34283" lon="5.53829">
        <ele>362.39</ele>
        <time>2021-04-27T09:38:27Z</time>
      </trkpt>
      <trkpt lat="45.34288" lon="5.53831">
        <ele>362.32</ele>
        <time>2021-04-27T09:38:28Z</time>
      </trkpt>
      <trkpt lat="45.34293" lon="5.53833">
        <ele>362.19</ele>
        <time>2021-04-27T09:38:29Z</time>
      </trkpt>
      <trkpt lat="45.34299" lon="5.53834">
        <ele>362.01</ele>
        <time>2021-04-27T09:38:30Z</time>
      </trkpt>
      <trkpt lat="45.34305" lon="5.53834">
        <ele>361.53</ele>
        <time>2021-04-27T09:38:31Z</time>
      </trkpt>
      <trkpt lat="45.34363" lon="5.53835">
        <ele>357.94</ele>
        <time>2021-04-27T09:38:38Z</time>
      </trkpt>
      <trkpt lat="45.34387" lon="5.53833">
        <ele>356.17</ele>
        <time>2021-04-27T09:38:41Z</time>
      </trkpt>
      <trkpt lat="45.34418" lon="5.53817">
        <ele>356.68</ele>
        <time>2021-04-27T09:38:49Z</time>
      </trkpt>
      <trkpt lat="45.34444" lon="5.53801">
        <ele>359.84</ele>
        <time>2021-04-27T09:38:59Z</time>
      </trkpt>
      <trkpt lat="45.34478" lon="5.53804">
        <ele>362.04</ele>
        <time>2021-04-27T09:39:11Z</time>
      </trkpt>
      <trkpt lat="45.34491" lon="5.53845">
        <ele>362.87</ele>
        <time>2021-04-27T09:39:21Z</time>
      </trkpt>
      <trkpt lat="45.34503" lon="5.53905">
        <ele>362.79</ele>
        <time>2021-04-27T09:39:32Z</time>
      </trkpt>
      <trkpt lat="45.34523" lon="5.53969">
        <ele>362.97</ele>
        <time>2021-04-27T09:39:44Z</time>
      </trkpt>
      <trkpt lat="45.34525" lon="5.53975">
        <ele>362.98</ele>
        <time>2021-04-27T09:39:45Z</time>
      </trkpt>
      <trkpt lat="45.34538" lon="5.54007">
        <ele>363.05</ele>
        <time>2021-04-27T09:39:51Z</time>
      </trkpt>
      <trkpt lat="45.3454" lon="5.54013">
        <ele>363.09</ele>
        <time>2021-04-27T09:39:52Z</time>
      </trkpt>
      <trkpt lat="45.34559" lon="5.54064">
        <ele>364.33</ele>
        <time>2021-04-27T09:40:03Z</time>
      </trkpt>
      <trkpt lat="45.34558" lon="5.54068">
        <ele>364.45</ele>
        <time>2021-04-27T09:40:04Z</time>
      </trkpt>
      <trkpt lat="45.34555" lon="5.54072">
        <ele>364.55</ele>
        <time>2021-04-27T09:40:05Z</time>
      </trkpt>
      <trkpt lat="45.34514" lon="5.5414">
        <ele>362.14</ele>
        <time>2021-04-27T09:40:17Z</time>
      </trkpt>
      <trkpt lat="45.34512" lon="5.54146">
        <ele>361.95</ele>
        <time>2021-04-27T09:40:18Z</time>
      </trkpt>
      <trkpt lat="45.3451" lon="5.54152">
        <ele>361.82</ele>
        <time>2021-04-27T09:40:19Z</time>
      </trkpt>
      <trkpt lat="45.34511" lon="5.54158">
        <ele>361.73</ele>
        <time>2021-04-27T09:40:20Z</time>
      </trkpt>
      <trkpt lat="45.34512" lon="5.54162">
        <ele>361.68</ele>
        <time>2021-04-27T09:40:21Z</time>
      </trkpt>
      <trkpt lat="45.34514" lon="5.54166">
        <ele>361.64</ele>
        <time>2021-04-27T09:40:22Z</time>
      </trkpt>
      <trkpt lat="45.34516" lon="5.5417">
        <ele>361.68</ele>
        <time>2021-04-27T09:40:23Z</time>
      </trkpt>
      <trkpt lat="45.34518" lon="5.54173">
        <ele>361.79</ele>
        <time>2021-04-27T09:40:24Z</time>
      </trkpt>
      <trkpt lat="45.3452" lon="5.54177">
        <ele>361.96</ele>
        <time>2021-04-27T09:40:25Z</time>
      </trkpt>
      <trkpt lat="45.34556" lon="5.54218">
        <ele>363.85</ele>
        <time>2021-04-27T09:40:37Z</time>
      </trkpt>
      <trkpt lat="45.34562" lon="5.54225">
        <ele>364.02</ele>
        <time>2021-04-27T09:40:39Z</time>
      </trkpt>
      <trkpt lat="45.34584" lon="5.54259">
        <ele>364.05</ele>
        <time>2021-04-27T09:40:46Z</time>
      </trkpt>
      <trkpt lat="45.34628" lon="5.5435">
        <ele>362.96</ele>
        <time>2021-04-27T09:41:02Z</time>
      </trkpt>
      <trkpt lat="45.34631" lon="5.54355">
        <ele>362.87</ele>
        <time>2021-04-27T09:41:03Z</time>
      </trkpt>
      <trkpt lat="45.34678" lon="5.54425">
        <ele>361.96</ele>
        <time>2021-04-27T09:41:17Z</time>
      </trkpt>
      <trkpt lat="45.3469" lon="5.5444">
        <ele>361.5</ele>
        <time>2021-04-27T09:41:20Z</time>
      </trkpt>
      <trkpt lat="45.34694" lon="5.54446">
        <ele>361.37</ele>
        <time>2021-04-27T09:41:21Z</time>
      </trkpt>
      <trkpt lat="45.34698" lon="5.54451">
        <ele>361.23</ele>
        <time>2021-04-27T09:41:22Z</time>
      </trkpt>
      <trkpt lat="45.34703" lon="5.54456">
        <ele>361.08</ele>
        <time>2021-04-27T09:41:23Z</time>
      </trkpt>
      <trkpt lat="45.34708" lon="5.54462">
        <ele>360.9</ele>
        <time>2021-04-27T09:41:24Z</time>
      </trkpt>
      <trkpt lat="45.34736" lon="5.54494">
        <ele>358.86</ele>
        <time>2021-04-27T09:41:31Z</time>
      </trkpt>
      <trkpt lat="45.34739" lon="5.54494">
        <ele>358.72</ele>
        <time>2021-04-27T09:41:32Z</time>
      </trkpt>
      <trkpt lat="45.34741" lon="5.54492">
        <ele>358.64</ele>
        <time>2021-04-27T09:41:33Z</time>
      </trkpt>
      <trkpt lat="45.34743" lon="5.54489">
        <ele>358.59</ele>
        <time>2021-04-27T09:41:34Z</time>
      </trkpt>
      <trkpt lat="45.34744" lon="5.54487">
        <ele>358.57</ele>
        <time>2021-04-27T09:41:35Z</time>
      </trkpt>
      <trkpt lat="45.34745" lon="5.54484">
        <ele>358.59</ele>
        <time>2021-04-27T09:41:36Z</time>
      </trkpt>
      <trkpt lat="45.34746" lon="5.54481">
        <ele>358.67</ele>
        <time>2021-04-27T09:41:37Z</time>
      </trkpt>
      <trkpt lat="45.34747" lon="5.54478">
        <ele>358.76</ele>
        <time>2021-04-27T09:41:38Z</time>
      </trkpt>
      <trkpt lat="45.34748" lon="5.54475">
        <ele>358.84</ele>
        <time>2021-04-27T09:41:39Z</time>
      </trkpt>
      <trkpt lat="45.34749" lon="5.54472">
        <ele>358.95</ele>
        <time>2021-04-27T09:41:40Z</time>
      </trkpt>
      <trkpt lat="45.3475" lon="5.54469">
        <ele>359.05</ele>
        <time>2021-04-27T09:41:41Z</time>
      </trkpt>
      <trkpt lat="45.34751" lon="5.54466">
        <ele>359.17</ele>
        <time>2021-04-27T09:41:42Z</time>
      </trkpt>
      <trkpt lat="45.3477" lon="5.5442">
        <ele>360.94</ele>
        <time>2021-04-27T09:41:54Z</time>
      </trkpt>
      <trkpt lat="45.34795" lon="5.54378">
        <ele>361.15</ele>
        <time>2021-04-27T09:42:05Z</time>
      </trkpt>
      <trkpt lat="45.3482" lon="5.54343">
        <ele>362.06</ele>
        <time>2021-04-27T09:42:15Z</time>
      </trkpt>
      <trkpt lat="45.34843" lon="5.54317">
        <ele>363.83</ele>
        <time>2021-04-27T09:42:25Z</time>
      </trkpt>
      <trkpt lat="45.34877" lon="5.54284">
        <ele>365.85</ele>
        <time>2021-04-27T09:42:38Z</time>
      </trkpt>
      <trkpt lat="45.34905" lon="5.54255">
        <ele>368.53</ele>
        <time>2021-04-27T09:42:51Z</time>
      </trkpt>
      <trkpt lat="45.34935" lon="5.54221">
        <ele>371.51</ele>
        <time>2021-04-27T09:43:08Z</time>
      </trkpt>
      <trkpt lat="45.34964" lon="5.54196">
        <ele>374.61</ele>
        <time>2021-04-27T09:43:23Z</time>
      </trkpt>
      <trkpt lat="45.34987" lon="5.54177">
        <ele>376.97</ele>
        <time>2021-04-27T09:43:36Z</time>
      </trkpt>
      <trkpt lat="45.35022" lon="5.54136">
        <ele>378.74</ele>
        <time>2021-04-27T09:43:52Z</time>
      </trkpt>
      <trkpt lat="45.35047" lon="5.54095">
        <ele>379.99</ele>
        <time>2021-04-27T09:44:05Z</time>
      </trkpt>
      <trkpt lat="45.35072" lon="5.54038">
        <ele>381.76</ele>
        <time>2021-04-27T09:44:21Z</time>
      </trkpt>
      <trkpt lat="45.35098" lon="5.54019">
        <ele>384.38</ele>
        <time>2021-04-27T09:44:33Z</time>
      </trkpt>
      <trkpt lat="45.35121" lon="5.53976">
        <ele>387.31</ele>
        <time>2021-04-27T09:44:46Z</time>
      </trkpt>
      <trkpt lat="45.35133" lon="5.53927">
        <ele>387.82</ele>
        <time>2021-04-27T09:44:58Z</time>
      </trkpt>
      <trkpt lat="45.35141" lon="5.53865">
        <ele>387.2</ele>
        <time>2021-04-27T09:45:10Z</time>
      </trkpt>
      <trkpt lat="45.35142" lon="5.5386">
        <ele>387.21</ele>
        <time>2021-04-27T09:45:11Z</time>
      </trkpt>
      <trkpt lat="45.35144" lon="5.53856">
        <ele>387.22</ele>
        <time>2021-04-27T09:45:12Z</time>
      </trkpt>
      <trkpt lat="45.35147" lon="5.5385">
        <ele>387.23</ele>
        <time>2021-04-27T09:45:13Z</time>
      </trkpt>
      <trkpt lat="45.35149" lon="5.53846">
        <ele>387.25</ele>
        <time>2021-04-27T09:45:14Z</time>
      </trkpt>
      <trkpt lat="45.35179" lon="5.53802">
        <ele>388.16</ele>
        <time>2021-04-27T09:45:27Z</time>
      </trkpt>
      <trkpt lat="45.35212" lon="5.53766">
        <ele>390.89</ele>
        <time>2021-04-27T09:45:41Z</time>
      </trkpt>
      <trkpt lat="45.35227" lon="5.53737">
        <ele>393.96</ele>
        <time>2021-04-27T09:45:52Z</time>
      </trkpt>
      <trkpt lat="45.35231" lon="5.53726">
        <ele>394.85</ele>
        <time>2021-04-27T09:45:56Z</time>
      </trkpt>
      <trkpt lat="45.35233" lon="5.53725">
        <ele>395.06</ele>
        <time>2021-04-27T09:45:57Z</time>
      </trkpt>
      <trkpt lat="45.35234" lon="5.53726">
        <ele>395.25</ele>
        <time>2021-04-27T09:45:58Z</time>
      </trkpt>
      <trkpt lat="45.35263" lon="5.53772">
        <ele>395.77</ele>
        <time>2021-04-27T09:46:12Z</time>
      </trkpt>
      <trkpt lat="45.35304" lon="5.53826">
        <ele>394.65</ele>
        <time>2021-04-27T09:46:28Z</time>
      </trkpt>
      <trkpt lat="45.35306" lon="5.53825">
        <ele>394.64</ele>
        <time>2021-04-27T09:46:29Z</time>
      </trkpt>
      <trkpt lat="45.35308" lon="5.53823">
        <ele>394.64</ele>
        <time>2021-04-27T09:46:30Z</time>
      </trkpt>
      <trkpt lat="45.35309" lon="5.53821">
        <ele>394.66</ele>
        <time>2021-04-27T09:46:31Z</time>
      </trkpt>
      <trkpt lat="45.3531" lon="5.53819">
        <ele>394.67</ele>
        <time>2021-04-27T09:46:32Z</time>
      </trkpt>
      <trkpt lat="45.35311" lon="5.53817">
        <ele>394.69</ele>
        <time>2021-04-27T09:46:33Z</time>
      </trkpt>
      <trkpt lat="45.35312" lon="5.53815">
        <ele>394.7</ele>
        <time>2021-04-27T09:46:34Z</time>
      </trkpt>
      <trkpt lat="45.35313" lon="5.53812">
        <ele>394.7</ele>
        <time>2021-04-27T09:46:35Z</time>
      </trkpt>
      <trkpt lat="45.35313" lon="5.5381">
        <ele>394.69</ele>
        <time>2021-04-27T09:46:36Z</time>
      </trkpt>
      <trkpt lat="45.35314" lon="5.53808">
        <ele>394.68</ele>
        <time>2021-04-27T09:46:37Z</time>
      </trkpt>
      <trkpt lat="45.35316" lon="5.53806">
        <ele>394.68</ele>
        <time>2021-04-27T09:46:38Z</time>
      </trkpt>
      <trkpt lat="45.35339" lon="5.53749">
        <ele>395.11</ele>
        <time>2021-04-27T09:46:53Z</time>
      </trkpt>
      <trkpt lat="45.35363" lon="5.53666">
        <ele>397.1</ele>
        <time>2021-04-27T09:47:10Z</time>
      </trkpt>
      <trkpt lat="45.35395" lon="5.53624">
        <ele>400.32</ele>
        <time>2021-04-27T09:47:25Z</time>
      </trkpt>
      <trkpt lat="45.35438" lon="5.53599">
        <ele>402.83</ele>
        <time>2021-04-27T09:47:41Z</time>
      </trkpt>
      <trkpt lat="45.35469" lon="5.5358">
        <ele>404.88</ele>
        <time>2021-04-27T09:47:55Z</time>
      </trkpt>
      <trkpt lat="45.35467" lon="5.53581">
        <ele>405.36</ele>
        <time>2021-04-27T09:48:33Z</time>
      </trkpt>
      <trkpt lat="45.35471" lon="5.53577">
        <ele>405.91</ele>
        <time>2021-04-27T09:49:17Z</time>
      </trkpt>
      <trkpt lat="45.35471" lon="5.53575">
        <ele>405.88</ele>
        <time>2021-04-27T09:49:18Z</time>
      </trkpt>
      <trkpt lat="45.35471" lon="5.53572">
        <ele>405.83</ele>
        <time>2021-04-27T09:49:19Z</time>
      </trkpt>
      <trkpt lat="45.3545" lon="5.53516">
        <ele>404.85</ele>
        <time>2021-04-27T09:49:31Z</time>
      </trkpt>
      <trkpt lat="45.35427" lon="5.53404">
        <ele>403.32</ele>
        <time>2021-04-27T09:49:46Z</time>
      </trkpt>
      <trkpt lat="45.35433" lon="5.53309">
        <ele>400.83</ele>
        <time>2021-04-27T09:49:57Z</time>
      </trkpt>
      <trkpt lat="45.35451" lon="5.53207">
        <ele>401.32</ele>
        <time>2021-04-27T09:50:12Z</time>
      </trkpt>
      <trkpt lat="45.35455" lon="5.53177">
        <ele>401.04</ele>
        <time>2021-04-27T09:50:16Z</time>
      </trkpt>
      <trkpt lat="45.35461" lon="5.53088">
        <ele>397.91</ele>
        <time>2021-04-27T09:50:25Z</time>
      </trkpt>
      <trkpt lat="45.35468" lon="5.53037">
        <ele>394.56</ele>
        <time>2021-04-27T09:50:29Z</time>
      </trkpt>
      <trkpt lat="45.35474" lon="5.52987">
        <ele>391</ele>
        <time>2021-04-27T09:50:33Z</time>
      </trkpt>
      <trkpt lat="45.35487" lon="5.52929">
        <ele>391.31</ele>
        <time>2021-04-27T09:50:41Z</time>
      </trkpt>
      <trkpt lat="45.355" lon="5.52904">
        <ele>394.35</ele>
        <time>2021-04-27T09:50:48Z</time>
      </trkpt>
      <trkpt lat="45.35523" lon="5.52876">
        <ele>397.48</ele>
        <time>2021-04-27T09:50:58Z</time>
      </trkpt>
      <trkpt lat="45.35543" lon="5.52823">
        <ele>399.16</ele>
        <time>2021-04-27T09:51:12Z</time>
      </trkpt>
      <trkpt lat="45.35576" lon="5.52813">
        <ele>402.32</ele>
        <time>2021-04-27T09:51:27Z</time>
      </trkpt>
      <trkpt lat="45.35602" lon="5.52804">
        <ele>403.68</ele>
        <time>2021-04-27T09:51:38Z</time>
      </trkpt>
      <trkpt lat="45.3563" lon="5.52789">
        <ele>406.8</ele>
        <time>2021-04-27T09:51:53Z</time>
      </trkpt>
      <trkpt lat="45.35671" lon="5.52763">
        <ele>409.19</ele>
        <time>2021-04-27T09:52:10Z</time>
      </trkpt>
      <trkpt lat="45.35703" lon="5.5274">
        <ele>408.97</ele>
        <time>2021-04-27T09:52:23Z</time>
      </trkpt>
      <trkpt lat="45.35749" lon="5.52699">
        <ele>409.02</ele>
        <time>2021-04-27T09:52:39Z</time>
      </trkpt>
      <trkpt lat="45.35771" lon="5.5265">
        <ele>409.3</ele>
        <time>2021-04-27T09:52:53Z</time>
      </trkpt>
      <trkpt lat="45.35791" lon="5.5261">
        <ele>407.72</ele>
        <time>2021-04-27T09:53:01Z</time>
      </trkpt>
      <trkpt lat="45.35795" lon="5.5261">
        <ele>407.41</ele>
        <time>2021-04-27T09:53:02Z</time>
      </trkpt>
      <trkpt lat="45.35837" lon="5.52619">
        <ele>405.93</ele>
        <time>2021-04-27T09:53:13Z</time>
      </trkpt>
      <trkpt lat="45.3589" lon="5.52631">
        <ele>408.02</ele>
        <time>2021-04-27T09:53:28Z</time>
      </trkpt>
      <trkpt lat="45.35944" lon="5.52646">
        <ele>407.27</ele>
        <time>2021-04-27T09:53:43Z</time>
      </trkpt>
      <trkpt lat="45.35976" lon="5.52647">
        <ele>408.7</ele>
        <time>2021-04-27T09:53:55Z</time>
      </trkpt>
      <trkpt lat="45.35987" lon="5.52652">
        <ele>410.54</ele>
        <time>2021-04-27T09:54:01Z</time>
      </trkpt>
      <trkpt lat="45.35988" lon="5.52653">
        <ele>410.83</ele>
        <time>2021-04-27T09:54:02Z</time>
      </trkpt>
      <trkpt lat="45.35988" lon="5.52655">
        <ele>411.11</ele>
        <time>2021-04-27T09:54:03Z</time>
      </trkpt>
      <trkpt lat="45.35988" lon="5.52657">
        <ele>411.37</ele>
        <time>2021-04-27T09:54:04Z</time>
      </trkpt>
      <trkpt lat="45.35988" lon="5.52659">
        <ele>411.57</ele>
        <time>2021-04-27T09:54:05Z</time>
      </trkpt>
      <trkpt lat="45.35985" lon="5.52694">
        <ele>412.16</ele>
        <time>2021-04-27T09:54:15Z</time>
      </trkpt>
      <trkpt lat="45.35985" lon="5.5273">
        <ele>412.67</ele>
        <time>2021-04-27T09:54:26Z</time>
      </trkpt>
      <trkpt lat="45.35986" lon="5.52749">
        <ele>413.26</ele>
        <time>2021-04-27T09:54:31Z</time>
      </trkpt>
      <trkpt lat="45.35977" lon="5.52794">
        <ele>415.46</ele>
        <time>2021-04-27T09:54:43Z</time>
      </trkpt>
      <trkpt lat="45.3597" lon="5.52826">
        <ele>417.22</ele>
        <time>2021-04-27T09:54:53Z</time>
      </trkpt>
      <trkpt lat="45.35964" lon="5.52871">
        <ele>419.21</ele>
        <time>2021-04-27T09:55:06Z</time>
      </trkpt>
      <trkpt lat="45.35961" lon="5.52885">
        <ele>420.01</ele>
        <time>2021-04-27T09:55:10Z</time>
      </trkpt>
      <trkpt lat="45.35955" lon="5.52908">
        <ele>421.82</ele>
        <time>2021-04-27T09:55:19Z</time>
      </trkpt>
      <trkpt lat="45.35952" lon="5.52925">
        <ele>422.84</ele>
        <time>2021-04-27T09:55:25Z</time>
      </trkpt>
      <trkpt lat="45.35947" lon="5.52956">
        <ele>424.63</ele>
        <time>2021-04-27T09:55:36Z</time>
      </trkpt>
      <trkpt lat="45.35948" lon="5.52997">
        <ele>426.72</ele>
        <time>2021-04-27T09:55:49Z</time>
      </trkpt>
      <trkpt lat="45.35947" lon="5.53011">
        <ele>426.84</ele>
        <time>2021-04-27T09:55:53Z</time>
      </trkpt>
      <trkpt lat="45.35949" lon="5.53028">
        <ele>426.91</ele>
        <time>2021-04-27T09:55:57Z</time>
      </trkpt>
      <trkpt lat="45.35954" lon="5.53066">
        <ele>427.68</ele>
        <time>2021-04-27T09:56:08Z</time>
      </trkpt>
      <trkpt lat="45.3595" lon="5.53121">
        <ele>428.3</ele>
        <time>2021-04-27T09:56:19Z</time>
      </trkpt>
      <trkpt lat="45.35946" lon="5.53196">
        <ele>427.74</ele>
        <time>2021-04-27T09:56:32Z</time>
      </trkpt>
      <trkpt lat="45.35948" lon="5.53231">
        <ele>427.5</ele>
        <time>2021-04-27T09:56:38Z</time>
      </trkpt>
      <trkpt lat="45.35951" lon="5.53279">
        <ele>426.18</ele>
        <time>2021-04-27T09:56:46Z</time>
      </trkpt>
      <trkpt lat="45.35953" lon="5.5331">
        <ele>425.36</ele>
        <time>2021-04-27T09:56:51Z</time>
      </trkpt>
      <trkpt lat="45.35956" lon="5.53353">
        <ele>423.8</ele>
        <time>2021-04-27T09:56:57Z</time>
      </trkpt>
      <trkpt lat="45.35964" lon="5.53434">
        <ele>423.01</ele>
        <time>2021-04-27T09:57:07Z</time>
      </trkpt>
      <trkpt lat="45.3597" lon="5.53463">
        <ele>422.91</ele>
        <time>2021-04-27T09:57:11Z</time>
      </trkpt>
      <trkpt lat="45.35987" lon="5.53514">
        <ele>423.99</ele>
        <time>2021-04-27T09:57:20Z</time>
      </trkpt>
      <trkpt lat="45.36006" lon="5.53546">
        <ele>424.36</ele>
        <time>2021-04-27T09:57:26Z</time>
      </trkpt>
      <trkpt lat="45.36013" lon="5.53557">
        <ele>424.35</ele>
        <time>2021-04-27T09:57:28Z</time>
      </trkpt>
      <trkpt lat="45.36023" lon="5.53573">
        <ele>424.49</ele>
        <time>2021-04-27T09:57:32Z</time>
      </trkpt>
      <trkpt lat="45.36026" lon="5.53576">
        <ele>425.45</ele>
        <time>2021-04-27T09:57:41Z</time>
      </trkpt>
      <trkpt lat="45.36027" lon="5.53585">
        <ele>426.03</ele>
        <time>2021-04-27T09:57:58Z</time>
      </trkpt>
      <trkpt lat="45.36031" lon="5.53592">
        <ele>425.92</ele>
        <time>2021-04-27T09:58:13Z</time>
      </trkpt>
      <trkpt lat="45.36054" lon="5.53619">
        <ele>425.79</ele>
        <time>2021-04-27T09:58:25Z</time>
      </trkpt>
      <trkpt lat="45.3608" lon="5.53632">
        <ele>426</ele>
        <time>2021-04-27T09:58:33Z</time>
      </trkpt>
      <trkpt lat="45.3611" lon="5.53647">
        <ele>426.22</ele>
        <time>2021-04-27T09:58:40Z</time>
      </trkpt>
      <trkpt lat="45.36128" lon="5.53672">
        <ele>426.28</ele>
        <time>2021-04-27T09:58:45Z</time>
      </trkpt>
      <trkpt lat="45.36162" lon="5.5375">
        <ele>425.51</ele>
        <time>2021-04-27T09:58:57Z</time>
      </trkpt>
      <trkpt lat="45.36192" lon="5.5383">
        <ele>426.19</ele>
        <time>2021-04-27T09:59:10Z</time>
      </trkpt>
      <trkpt lat="45.36203" lon="5.53849">
        <ele>427.37</ele>
        <time>2021-04-27T09:59:16Z</time>
      </trkpt>
      <trkpt lat="45.36203" lon="5.53862">
        <ele>428.71</ele>
        <time>2021-04-27T09:59:21Z</time>
      </trkpt>
      <trkpt lat="45.36197" lon="5.5387">
        <ele>430.3</ele>
        <time>2021-04-27T09:59:26Z</time>
      </trkpt>
      <trkpt lat="45.36188" lon="5.53875">
        <ele>430.78</ele>
        <time>2021-04-27T09:59:31Z</time>
      </trkpt>
      <trkpt lat="45.36147" lon="5.53883">
        <ele>430.6</ele>
        <time>2021-04-27T09:59:43Z</time>
      </trkpt>
      <trkpt lat="45.36137" lon="5.53885">
        <ele>430.5</ele>
        <time>2021-04-27T09:59:46Z</time>
      </trkpt>
      <trkpt lat="45.36102" lon="5.53912">
        <ele>429.52</ele>
        <time>2021-04-27T09:59:56Z</time>
      </trkpt>
      <trkpt lat="45.36058" lon="5.53946">
        <ele>429.07</ele>
        <time>2021-04-27T10:00:07Z</time>
      </trkpt>
      <trkpt lat="45.36043" lon="5.53959">
        <ele>428.9</ele>
        <time>2021-04-27T10:00:10Z</time>
      </trkpt>
      <trkpt lat="45.36032" lon="5.53965">
        <ele>428.47</ele>
        <time>2021-04-27T10:00:12Z</time>
      </trkpt>
      <trkpt lat="45.35979" lon="5.53997">
        <ele>426.97</ele>
        <time>2021-04-27T10:00:25Z</time>
      </trkpt>
      <trkpt lat="45.35967" lon="5.54006">
        <ele>427.75</ele>
        <time>2021-04-27T10:00:36Z</time>
      </trkpt>
      <trkpt lat="45.35964" lon="5.54006">
        <ele>427.88</ele>
        <time>2021-04-27T10:00:46Z</time>
      </trkpt>
      <trkpt lat="45.35957" lon="5.54017">
        <ele>427.84</ele>
        <time>2021-04-27T10:00:50Z</time>
      </trkpt>
      <trkpt lat="45.35948" lon="5.54031">
        <ele>427.42</ele>
        <time>2021-04-27T10:00:53Z</time>
      </trkpt>
      <trkpt lat="45.35939" lon="5.5405">
        <ele>426.72</ele>
        <time>2021-04-27T10:00:56Z</time>
      </trkpt>
      <trkpt lat="45.35934" lon="5.54082">
        <ele>425.52</ele>
        <time>2021-04-27T10:01:00Z</time>
      </trkpt>
      <trkpt lat="45.35933" lon="5.54111">
        <ele>424.31</ele>
        <time>2021-04-27T10:01:03Z</time>
      </trkpt>
      <trkpt lat="45.35922" lon="5.54177">
        <ele>420.62</ele>
        <time>2021-04-27T10:01:09Z</time>
      </trkpt>
      <trkpt lat="45.35926" lon="5.5423">
        <ele>416.9</ele>
        <time>2021-04-27T10:01:15Z</time>
      </trkpt>
      <trkpt lat="45.35929" lon="5.54236">
        <ele>416.69</ele>
        <time>2021-04-27T10:01:16Z</time>
      </trkpt>
      <trkpt lat="45.35934" lon="5.54243">
        <ele>416.52</ele>
        <time>2021-04-27T10:01:17Z</time>
      </trkpt>
      <trkpt lat="45.35938" lon="5.54248">
        <ele>416.38</ele>
        <time>2021-04-27T10:01:18Z</time>
      </trkpt>
      <trkpt lat="45.35942" lon="5.54255">
        <ele>416.27</ele>
        <time>2021-04-27T10:01:19Z</time>
      </trkpt>
      <trkpt lat="45.35991" lon="5.54323">
        <ele>413.25</ele>
        <time>2021-04-27T10:01:29Z</time>
      </trkpt>
      <trkpt lat="45.36036" lon="5.54355">
        <ele>410.07</ele>
        <time>2021-04-27T10:01:35Z</time>
      </trkpt>
      <trkpt lat="45.36089" lon="5.54387">
        <ele>407.9</ele>
        <time>2021-04-27T10:01:42Z</time>
      </trkpt>
      <trkpt lat="45.36097" lon="5.54389">
        <ele>407.58</ele>
        <time>2021-04-27T10:01:43Z</time>
      </trkpt>
      <trkpt lat="45.36169" lon="5.54412">
        <ele>404.93</ele>
        <time>2021-04-27T10:01:53Z</time>
      </trkpt>
      <trkpt lat="45.36173" lon="5.54415">
        <ele>404.77</ele>
        <time>2021-04-27T10:01:54Z</time>
      </trkpt>
      <trkpt lat="45.36176" lon="5.54418">
        <ele>404.56</ele>
        <time>2021-04-27T10:01:55Z</time>
      </trkpt>
      <trkpt lat="45.36177" lon="5.54423">
        <ele>404.33</ele>
        <time>2021-04-27T10:01:56Z</time>
      </trkpt>
      <trkpt lat="45.36175" lon="5.54427">
        <ele>404.12</ele>
        <time>2021-04-27T10:01:57Z</time>
      </trkpt>
      <trkpt lat="45.36173" lon="5.5443">
        <ele>403.94</ele>
        <time>2021-04-27T10:01:58Z</time>
      </trkpt>
      <trkpt lat="45.3617" lon="5.54433">
        <ele>403.81</ele>
        <time>2021-04-27T10:01:59Z</time>
      </trkpt>
      <trkpt lat="45.36168" lon="5.54436">
        <ele>403.73</ele>
        <time>2021-04-27T10:02:00Z</time>
      </trkpt>
      <trkpt lat="45.3612" lon="5.54477">
        <ele>401.74</ele>
        <time>2021-04-27T10:02:13Z</time>
      </trkpt>
      <trkpt lat="45.36102" lon="5.54522">
        <ele>399.21</ele>
        <time>2021-04-27T10:02:21Z</time>
      </trkpt>
      <trkpt lat="45.36111" lon="5.54541">
        <ele>395.64</ele>
        <time>2021-04-27T10:02:27Z</time>
      </trkpt>
      <trkpt lat="45.36116" lon="5.54552">
        <ele>392.07</ele>
        <time>2021-04-27T10:02:31Z</time>
      </trkpt>
      <trkpt lat="45.36115" lon="5.54557">
        <ele>391.15</ele>
        <time>2021-04-27T10:02:32Z</time>
      </trkpt>
      <trkpt lat="45.36113" lon="5.54563">
        <ele>390.21</ele>
        <time>2021-04-27T10:02:33Z</time>
      </trkpt>
      <trkpt lat="45.36109" lon="5.54571">
        <ele>389.22</ele>
        <time>2021-04-27T10:02:34Z</time>
      </trkpt>
      <trkpt lat="45.36105" lon="5.54581">
        <ele>388.17</ele>
        <time>2021-04-27T10:02:35Z</time>
      </trkpt>
      <trkpt lat="45.36085" lon="5.54611">
        <ele>384.43</ele>
        <time>2021-04-27T10:02:38Z</time>
      </trkpt>
      <trkpt lat="45.36072" lon="5.54632">
        <ele>381.46</ele>
        <time>2021-04-27T10:02:40Z</time>
      </trkpt>
      <trkpt lat="45.36058" lon="5.54649">
        <ele>376.4</ele>
        <time>2021-04-27T10:02:42Z</time>
      </trkpt>
      <trkpt lat="45.36038" lon="5.54674">
        <ele>373.39</ele>
        <time>2021-04-27T10:02:45Z</time>
      </trkpt>
      <trkpt lat="45.36028" lon="5.54695">
        <ele>372.17</ele>
        <time>2021-04-27T10:02:48Z</time>
      </trkpt>
      <trkpt lat="45.36028" lon="5.54702">
        <ele>371.95</ele>
        <time>2021-04-27T10:02:49Z</time>
      </trkpt>
      <trkpt lat="45.3603" lon="5.54713">
        <ele>371.79</ele>
        <time>2021-04-27T10:02:50Z</time>
      </trkpt>
      <trkpt lat="45.36061" lon="5.54802">
        <ele>368.72</ele>
        <time>2021-04-27T10:03:00Z</time>
      </trkpt>
      <trkpt lat="45.36098" lon="5.54874">
        <ele>367.48</ele>
        <time>2021-04-27T10:03:10Z</time>
      </trkpt>
      <trkpt lat="45.36093" lon="5.54918">
        <ele>366.58</ele>
        <time>2021-04-27T10:03:17Z</time>
      </trkpt>
      <trkpt lat="45.36024" lon="5.54965">
        <ele>365.85</ele>
        <time>2021-04-27T10:03:32Z</time>
      </trkpt>
      <trkpt lat="45.35949" lon="5.55001">
        <ele>366.54</ele>
        <time>2021-04-27T10:03:48Z</time>
      </trkpt>
      <trkpt lat="45.35899" lon="5.55031">
        <ele>368.12</ele>
        <time>2021-04-27T10:03:59Z</time>
      </trkpt>
      <trkpt lat="45.35813" lon="5.55058">
        <ele>369.58</ele>
        <time>2021-04-27T10:04:16Z</time>
      </trkpt>
      <trkpt lat="45.3576" lon="5.55054">
        <ele>372.7</ele>
        <time>2021-04-27T10:04:30Z</time>
      </trkpt>
      <trkpt lat="45.35732" lon="5.55046">
        <ele>375.48</ele>
        <time>2021-04-27T10:04:44Z</time>
      </trkpt>
      <trkpt lat="45.35728" lon="5.55047">
        <ele>375.84</ele>
        <time>2021-04-27T10:05:31Z</time>
      </trkpt>
      <trkpt lat="45.35727" lon="5.55047">
        <ele>375.81</ele>
        <time>2021-04-27T10:05:32Z</time>
      </trkpt>
      <trkpt lat="45.35725" lon="5.55047">
        <ele>375.79</ele>
        <time>2021-04-27T10:05:33Z</time>
      </trkpt>
      <trkpt lat="45.35722" lon="5.55048">
        <ele>375.77</ele>
        <time>2021-04-27T10:05:34Z</time>
      </trkpt>
      <trkpt lat="45.3572" lon="5.55047">
        <ele>375.76</ele>
        <time>2021-04-27T10:05:35Z</time>
      </trkpt>
      <trkpt lat="45.35717" lon="5.55047">
        <ele>375.76</ele>
        <time>2021-04-27T10:05:36Z</time>
      </trkpt>
      <trkpt lat="45.35679" lon="5.55042">
        <ele>376.6</ele>
        <time>2021-04-27T10:05:53Z</time>
      </trkpt>
      <trkpt lat="45.35632" lon="5.5503">
        <ele>377.51</ele>
        <time>2021-04-27T10:06:09Z</time>
      </trkpt>
      <trkpt lat="45.35583" lon="5.55">
        <ele>380.15</ele>
        <time>2021-04-27T10:06:25Z</time>
      </trkpt>
      <trkpt lat="45.35554" lon="5.54985">
        <ele>381.66</ele>
        <time>2021-04-27T10:06:39Z</time>
      </trkpt>
      <trkpt lat="45.35552" lon="5.54989">
        <ele>382.17</ele>
        <time>2021-04-27T10:07:21Z</time>
      </trkpt>
      <trkpt lat="45.35552" lon="5.54991">
        <ele>382.16</ele>
        <time>2021-04-27T10:07:22Z</time>
      </trkpt>
      <trkpt lat="45.35552" lon="5.54994">
        <ele>382.16</ele>
        <time>2021-04-27T10:07:23Z</time>
      </trkpt>
      <trkpt lat="45.35558" lon="5.55028">
        <ele>381.46</ele>
        <time>2021-04-27T10:07:35Z</time>
      </trkpt>
      <trkpt lat="45.35562" lon="5.55067">
        <ele>380.73</ele>
        <time>2021-04-27T10:07:47Z</time>
      </trkpt>
      <trkpt lat="45.35561" lon="5.55099">
        <ele>379.87</ele>
        <time>2021-04-27T10:07:53Z</time>
      </trkpt>
      <trkpt lat="45.35558" lon="5.55116">
        <ele>379.21</ele>
        <time>2021-04-27T10:07:56Z</time>
      </trkpt>
      <trkpt lat="45.35554" lon="5.55119">
        <ele>378.98</ele>
        <time>2021-04-27T10:07:57Z</time>
      </trkpt>
      <trkpt lat="45.3555" lon="5.55122">
        <ele>378.76</ele>
        <time>2021-04-27T10:07:58Z</time>
      </trkpt>
      <trkpt lat="45.35545" lon="5.55122">
        <ele>378.51</ele>
        <time>2021-04-27T10:07:59Z</time>
      </trkpt>
      <trkpt lat="45.35539" lon="5.55122">
        <ele>378.26</ele>
        <time>2021-04-27T10:08:00Z</time>
      </trkpt>
      <trkpt lat="45.35533" lon="5.55121">
        <ele>377.73</ele>
        <time>2021-04-27T10:08:01Z</time>
      </trkpt>
      <trkpt lat="45.35527" lon="5.5512">
        <ele>377.73</ele>
        <time>2021-04-27T10:08:02Z</time>
      </trkpt>
      <trkpt lat="45.35516" lon="5.55116">
        <ele>376.61</ele>
        <time>2021-04-27T10:08:04Z</time>
      </trkpt>
      <trkpt lat="45.35511" lon="5.55114">
        <ele>376.17</ele>
        <time>2021-04-27T10:08:05Z</time>
      </trkpt>
      <trkpt lat="45.35504" lon="5.55111">
        <ele>375.7</ele>
        <time>2021-04-27T10:08:06Z</time>
      </trkpt>
      <trkpt lat="45.35465" lon="5.55092">
        <ele>372.54</ele>
        <time>2021-04-27T10:08:11Z</time>
      </trkpt>
      <trkpt lat="45.35419" lon="5.55064">
        <ele>369.46</ele>
        <time>2021-04-27T10:08:17Z</time>
      </trkpt>
      <trkpt lat="45.35344" lon="5.55032">
        <ele>366.07</ele>
        <time>2021-04-27T10:08:27Z</time>
      </trkpt>
      <trkpt lat="45.35265" lon="5.55012">
        <ele>365.69</ele>
        <time>2021-04-27T10:08:40Z</time>
      </trkpt>
      <trkpt lat="45.35198" lon="5.55018">
        <ele>365.8</ele>
        <time>2021-04-27T10:08:52Z</time>
      </trkpt>
      <trkpt lat="45.35193" lon="5.55018">
        <ele>365.9</ele>
        <time>2021-04-27T10:08:53Z</time>
      </trkpt>
      <trkpt lat="45.35187" lon="5.55018">
        <ele>365.94</ele>
        <time>2021-04-27T10:08:54Z</time>
      </trkpt>
      <trkpt lat="45.35182" lon="5.55019">
        <ele>365.93</ele>
        <time>2021-04-27T10:08:55Z</time>
      </trkpt>
      <trkpt lat="45.35177" lon="5.55018">
        <ele>365.82</ele>
        <time>2021-04-27T10:08:56Z</time>
      </trkpt>
      <trkpt lat="45.35166" lon="5.55016">
        <ele>365.52</ele>
        <time>2021-04-27T10:08:58Z</time>
      </trkpt>
      <trkpt lat="45.35161" lon="5.55014">
        <ele>365.41</ele>
        <time>2021-04-27T10:08:59Z</time>
      </trkpt>
      <trkpt lat="45.35134" lon="5.55">
        <ele>365.55</ele>
        <time>2021-04-27T10:09:05Z</time>
      </trkpt>
      <trkpt lat="45.3513" lon="5.54997">
        <ele>365.59</ele>
        <time>2021-04-27T10:09:06Z</time>
      </trkpt>
      <trkpt lat="45.35109" lon="5.54978">
        <ele>365.96</ele>
        <time>2021-04-27T10:09:12Z</time>
      </trkpt>
      <trkpt lat="45.35105" lon="5.54975">
        <ele>366.03</ele>
        <time>2021-04-27T10:09:13Z</time>
      </trkpt>
      <trkpt lat="45.35101" lon="5.54972">
        <ele>366.09</ele>
        <time>2021-04-27T10:09:14Z</time>
      </trkpt>
      <trkpt lat="45.35088" lon="5.54965">
        <ele>366.28</ele>
        <time>2021-04-27T10:09:17Z</time>
      </trkpt>
      <trkpt lat="45.35084" lon="5.54963">
        <ele>366.42</ele>
        <time>2021-04-27T10:09:18Z</time>
      </trkpt>
      <trkpt lat="45.35079" lon="5.54963">
        <ele>366.48</ele>
        <time>2021-04-27T10:09:19Z</time>
      </trkpt>
      <trkpt lat="45.35014" lon="5.54966">
        <ele>366.1</ele>
        <time>2021-04-27T10:09:32Z</time>
      </trkpt>
      <trkpt lat="45.3493" lon="5.5494">
        <ele>366.33</ele>
        <time>2021-04-27T10:09:48Z</time>
      </trkpt>
      <trkpt lat="45.34841" lon="5.54894">
        <ele>367.08</ele>
        <time>2021-04-27T10:10:07Z</time>
      </trkpt>
      <trkpt lat="45.34772" lon="5.54849">
        <ele>366.1</ele>
        <time>2021-04-27T10:10:21Z</time>
      </trkpt>
      <trkpt lat="45.34761" lon="5.54838">
        <ele>365.43</ele>
        <time>2021-04-27T10:10:23Z</time>
      </trkpt>
      <trkpt lat="45.34756" lon="5.54831">
        <ele>365.03</ele>
        <time>2021-04-27T10:10:24Z</time>
      </trkpt>
      <trkpt lat="45.34751" lon="5.54824">
        <ele>364.58</ele>
        <time>2021-04-27T10:10:25Z</time>
      </trkpt>
      <trkpt lat="45.34746" lon="5.54815">
        <ele>364.08</ele>
        <time>2021-04-27T10:10:26Z</time>
      </trkpt>
      <trkpt lat="45.34741" lon="5.54805">
        <ele>363.57</ele>
        <time>2021-04-27T10:10:27Z</time>
      </trkpt>
      <trkpt lat="45.34718" lon="5.54756">
        <ele>360.5</ele>
        <time>2021-04-27T10:10:32Z</time>
      </trkpt>
      <trkpt lat="45.34688" lon="5.54696">
        <ele>357.34</ele>
        <time>2021-04-27T10:10:38Z</time>
      </trkpt>
      <trkpt lat="45.34673" lon="5.54672">
        <ele>356.51</ele>
        <time>2021-04-27T10:10:43Z</time>
      </trkpt>
      <trkpt lat="45.34671" lon="5.54672">
        <ele>356.57</ele>
        <time>2021-04-27T10:10:44Z</time>
      </trkpt>
      <trkpt lat="45.34669" lon="5.54675">
        <ele>356.61</ele>
        <time>2021-04-27T10:10:45Z</time>
      </trkpt>
      <trkpt lat="45.34667" lon="5.54678">
        <ele>356.68</ele>
        <time>2021-04-27T10:10:46Z</time>
      </trkpt>
      <trkpt lat="45.34666" lon="5.54683">
        <ele>356.74</ele>
        <time>2021-04-27T10:10:47Z</time>
      </trkpt>
      <trkpt lat="45.34664" lon="5.54688">
        <ele>356.74</ele>
        <time>2021-04-27T10:10:48Z</time>
      </trkpt>
      <trkpt lat="45.34658" lon="5.54713">
        <ele>356.09</ele>
        <time>2021-04-27T10:10:52Z</time>
      </trkpt>
      <trkpt lat="45.34649" lon="5.54729">
        <ele>352.95</ele>
        <time>2021-04-27T10:10:58Z</time>
      </trkpt>
      <trkpt lat="45.34641" lon="5.5471">
        <ele>348.5</ele>
        <time>2021-04-27T10:11:06Z</time>
      </trkpt>
      <trkpt lat="45.34636" lon="5.54698">
        <ele>345.09</ele>
        <time>2021-04-27T10:11:12Z</time>
      </trkpt>
      <trkpt lat="45.34634" lon="5.5469">
        <ele>343.7</ele>
        <time>2021-04-27T10:11:15Z</time>
      </trkpt>
      <trkpt lat="45.34625" lon="5.54689">
        <ele>339.85</ele>
        <time>2021-04-27T10:11:23Z</time>
      </trkpt>
      <trkpt lat="45.34614" lon="5.54699">
        <ele>336.58</ele>
        <time>2021-04-27T10:11:30Z</time>
      </trkpt>
      <trkpt lat="45.34592" lon="5.5471">
        <ele>333.74</ele>
        <time>2021-04-27T10:11:36Z</time>
      </trkpt>
      <trkpt lat="45.3456" lon="5.54749">
        <ele>329.45</ele>
        <time>2021-04-27T10:11:43Z</time>
      </trkpt>
      <trkpt lat="45.34526" lon="5.54776">
        <ele>327.3</ele>
        <time>2021-04-27T10:11:51Z</time>
      </trkpt>
      <trkpt lat="45.34522" lon="5.54766">
        <ele>327.18</ele>
        <time>2021-04-27T10:11:53Z</time>
      </trkpt>
      <trkpt lat="45.34501" lon="5.54739">
        <ele>326.24</ele>
        <time>2021-04-27T10:11:59Z</time>
      </trkpt>
      <trkpt lat="45.34462" lon="5.54703">
        <ele>325.52</ele>
        <time>2021-04-27T10:12:10Z</time>
      </trkpt>
      <trkpt lat="45.34447" lon="5.54692">
        <ele>325.88</ele>
        <time>2021-04-27T10:12:14Z</time>
      </trkpt>
      <trkpt lat="45.34432" lon="5.54682">
        <ele>325.96</ele>
        <time>2021-04-27T10:12:18Z</time>
      </trkpt>
      <trkpt lat="45.34384" lon="5.54655">
        <ele>325.41</ele>
        <time>2021-04-27T10:12:31Z</time>
      </trkpt>
      <trkpt lat="45.34363" lon="5.54635">
        <ele>325.64</ele>
        <time>2021-04-27T10:12:38Z</time>
      </trkpt>
      <trkpt lat="45.34348" lon="5.54621">
        <ele>325.61</ele>
        <time>2021-04-27T10:12:44Z</time>
      </trkpt>
      <trkpt lat="45.34342" lon="5.54609">
        <ele>325.23</ele>
        <time>2021-04-27T10:12:48Z</time>
      </trkpt>
      <trkpt lat="45.34315" lon="5.54576">
        <ele>322.67</ele>
        <time>2021-04-27T10:12:56Z</time>
      </trkpt>
      <trkpt lat="45.34312" lon="5.54572">
        <ele>322.6</ele>
        <time>2021-04-27T10:12:58Z</time>
      </trkpt>
      <trkpt lat="45.34299" lon="5.54549">
        <ele>323.86</ele>
        <time>2021-04-27T10:13:06Z</time>
      </trkpt>
      <trkpt lat="45.34294" lon="5.54545">
        <ele>323.72</ele>
        <time>2021-04-27T10:13:08Z</time>
      </trkpt>
      <trkpt lat="45.34278" lon="5.54525">
        <ele>323.92</ele>
        <time>2021-04-27T10:13:16Z</time>
      </trkpt>
      <trkpt lat="45.34274" lon="5.54505">
        <ele>323.96</ele>
        <time>2021-04-27T10:13:21Z</time>
      </trkpt>
      <trkpt lat="45.34265" lon="5.54494">
        <ele>322.46</ele>
        <time>2021-04-27T10:13:27Z</time>
      </trkpt>
      <trkpt lat="45.34257" lon="5.54475">
        <ele>321.97</ele>
        <time>2021-04-27T10:13:32Z</time>
      </trkpt>
      <trkpt lat="45.34248" lon="5.54457">
        <ele>321.37</ele>
        <time>2021-04-27T10:13:37Z</time>
      </trkpt>
      <trkpt lat="45.34235" lon="5.54426">
        <ele>320.54</ele>
        <time>2021-04-27T10:13:45Z</time>
      </trkpt>
      <trkpt lat="45.34226" lon="5.54403">
        <ele>319.86</ele>
        <time>2021-04-27T10:13:50Z</time>
      </trkpt>
      <trkpt lat="45.34206" lon="5.5435">
        <ele>318.82</ele>
        <time>2021-04-27T10:14:00Z</time>
      </trkpt>
      <trkpt lat="45.3418" lon="5.54316">
        <ele>318.72</ele>
        <time>2021-04-27T10:14:09Z</time>
      </trkpt>
      <trkpt lat="45.34149" lon="5.54278">
        <ele>319.61</ele>
        <time>2021-04-27T10:14:22Z</time>
      </trkpt>
      <trkpt lat="45.34148" lon="5.54277">
        <ele>319.73</ele>
        <time>2021-04-27T10:14:23Z</time>
      </trkpt>
      <trkpt lat="45.34141" lon="5.54255">
        <ele>320.22</ele>
        <time>2021-04-27T10:14:28Z</time>
      </trkpt>
      <trkpt lat="45.34137" lon="5.54233">
        <ele>319.75</ele>
        <time>2021-04-27T10:14:32Z</time>
      </trkpt>
      <trkpt lat="45.34136" lon="5.54219">
        <ele>319.25</ele>
        <time>2021-04-27T10:14:34Z</time>
      </trkpt>
      <trkpt lat="45.3414" lon="5.54186">
        <ele>318.24</ele>
        <time>2021-04-27T10:14:40Z</time>
      </trkpt>
      <trkpt lat="45.34144" lon="5.54184">
        <ele>318.21</ele>
        <time>2021-04-27T10:14:41Z</time>
      </trkpt>
      <trkpt lat="45.34148" lon="5.54182">
        <ele>318.19</ele>
        <time>2021-04-27T10:14:42Z</time>
      </trkpt>
      <trkpt lat="45.3417" lon="5.54166">
        <ele>318.56</ele>
        <time>2021-04-27T10:14:50Z</time>
      </trkpt>
      <trkpt lat="45.34197" lon="5.54112">
        <ele>321.76</ele>
        <time>2021-04-27T10:15:04Z</time>
      </trkpt>
      <trkpt lat="45.34206" lon="5.5407">
        <ele>324.8</ele>
        <time>2021-04-27T10:15:15Z</time>
      </trkpt>
      <trkpt lat="45.34203" lon="5.54058">
        <ele>325.64</ele>
        <time>2021-04-27T10:15:19Z</time>
      </trkpt>
      <trkpt lat="45.34201" lon="5.54057">
        <ele>325.78</ele>
        <time>2021-04-27T10:15:20Z</time>
      </trkpt>
      <trkpt lat="45.34198" lon="5.54057">
        <ele>325.89</ele>
        <time>2021-04-27T10:15:21Z</time>
      </trkpt>
      <trkpt lat="45.34196" lon="5.54058">
        <ele>325.96</ele>
        <time>2021-04-27T10:15:22Z</time>
      </trkpt>
      <trkpt lat="45.34193" lon="5.54059">
        <ele>326.01</ele>
        <time>2021-04-27T10:15:23Z</time>
      </trkpt>
      <trkpt lat="45.3417" lon="5.54067">
        <ele>325.42</ele>
        <time>2021-04-27T10:15:28Z</time>
      </trkpt>
      <trkpt lat="45.3412" lon="5.54082">
        <ele>321.87</ele>
        <time>2021-04-27T10:15:35Z</time>
      </trkpt>
      <trkpt lat="45.34101" lon="5.54087">
        <ele>319.93</ele>
        <time>2021-04-27T10:15:37Z</time>
      </trkpt>
      <trkpt lat="45.34092" lon="5.54088">
        <ele>318.95</ele>
        <time>2021-04-27T10:15:38Z</time>
      </trkpt>
      <trkpt lat="45.34084" lon="5.54088">
        <ele>317.35</ele>
        <time>2021-04-27T10:15:39Z</time>
      </trkpt>
      <trkpt lat="45.34075" lon="5.54087">
        <ele>316.74</ele>
        <time>2021-04-27T10:15:40Z</time>
      </trkpt>
      <trkpt lat="45.34067" lon="5.54086">
        <ele>316.16</ele>
        <time>2021-04-27T10:15:41Z</time>
      </trkpt>
      <trkpt lat="45.34007" lon="5.54072">
        <ele>314.47</ele>
        <time>2021-04-27T10:15:49Z</time>
      </trkpt>
      <trkpt lat="45.34001" lon="5.54073">
        <ele>314.53</ele>
        <time>2021-04-27T10:15:50Z</time>
      </trkpt>
      <trkpt lat="45.33994" lon="5.54074">
        <ele>314.59</ele>
        <time>2021-04-27T10:15:51Z</time>
      </trkpt>
      <trkpt lat="45.33989" lon="5.54077">
        <ele>314.65</ele>
        <time>2021-04-27T10:15:52Z</time>
      </trkpt>
      <trkpt lat="45.33985" lon="5.5408">
        <ele>314.71</ele>
        <time>2021-04-27T10:15:53Z</time>
      </trkpt>
      <trkpt lat="45.33982" lon="5.54083">
        <ele>314.79</ele>
        <time>2021-04-27T10:15:54Z</time>
      </trkpt>
      <trkpt lat="45.33948" lon="5.54119">
        <ele>317.84</ele>
        <time>2021-04-27T10:16:07Z</time>
      </trkpt>
      <trkpt lat="45.33909" lon="5.54179">
        <ele>319.82</ele>
        <time>2021-04-27T10:16:22Z</time>
      </trkpt>
      <trkpt lat="45.33889" lon="5.54225">
        <ele>319.94</ele>
        <time>2021-04-27T10:16:31Z</time>
      </trkpt>
      <trkpt lat="45.33854" lon="5.54281">
        <ele>320.07</ele>
        <time>2021-04-27T10:16:44Z</time>
      </trkpt>
      <trkpt lat="45.33822" lon="5.54313">
        <ele>321.46</ele>
        <time>2021-04-27T10:16:56Z</time>
      </trkpt>
      <trkpt lat="45.33819" lon="5.54312">
        <ele>321.63</ele>
        <time>2021-04-27T10:16:57Z</time>
      </trkpt>
      <trkpt lat="45.33817" lon="5.54309">
        <ele>321.81</ele>
        <time>2021-04-27T10:16:58Z</time>
      </trkpt>
      <trkpt lat="45.33791" lon="5.54274">
        <ele>323.14</ele>
        <time>2021-04-27T10:17:08Z</time>
      </trkpt>
      <trkpt lat="45.33791" lon="5.5427">
        <ele>323.16</ele>
        <time>2021-04-27T10:17:09Z</time>
      </trkpt>
      <trkpt lat="45.33793" lon="5.54267">
        <ele>323.16</ele>
        <time>2021-04-27T10:17:10Z</time>
      </trkpt>
      <trkpt lat="45.33794" lon="5.54263">
        <ele>323.17</ele>
        <time>2021-04-27T10:17:11Z</time>
      </trkpt>
      <trkpt lat="45.33796" lon="5.54259">
        <ele>323.22</ele>
        <time>2021-04-27T10:17:12Z</time>
      </trkpt>
      <trkpt lat="45.33839" lon="5.54198">
        <ele>322.62</ele>
        <time>2021-04-27T10:17:26Z</time>
      </trkpt>
      <trkpt lat="45.33842" lon="5.54192">
        <ele>322.47</ele>
        <time>2021-04-27T10:17:27Z</time>
      </trkpt>
      <trkpt lat="45.33851" lon="5.54173">
        <ele>322.04</ele>
        <time>2021-04-27T10:17:30Z</time>
      </trkpt>
      <trkpt lat="45.33855" lon="5.54167">
        <ele>321.91</ele>
        <time>2021-04-27T10:17:31Z</time>
      </trkpt>
      <trkpt lat="45.33866" lon="5.5415">
        <ele>321.37</ele>
        <time>2021-04-27T10:17:34Z</time>
      </trkpt>
      <trkpt lat="45.33868" lon="5.54144">
        <ele>321.09</ele>
        <time>2021-04-27T10:17:35Z</time>
      </trkpt>
      <trkpt lat="45.33869" lon="5.54139">
        <ele>320.84</ele>
        <time>2021-04-27T10:17:36Z</time>
      </trkpt>
      <trkpt lat="45.33867" lon="5.54135">
        <ele>320.63</ele>
        <time>2021-04-27T10:17:37Z</time>
      </trkpt>
      <trkpt lat="45.33864" lon="5.5413">
        <ele>320.29</ele>
        <time>2021-04-27T10:17:39Z</time>
      </trkpt>
      <trkpt lat="45.3384" lon="5.541">
        <ele>318.29</ele>
        <time>2021-04-27T10:17:51Z</time>
      </trkpt>
      <trkpt lat="45.33837" lon="5.54097">
        <ele>318.1</ele>
        <time>2021-04-27T10:17:52Z</time>
      </trkpt>
      <trkpt lat="45.3383" lon="5.54089">
        <ele>317.52</ele>
        <time>2021-04-27T10:17:54Z</time>
      </trkpt>
      <trkpt lat="45.33815" lon="5.54045">
        <ele>315.22</ele>
        <time>2021-04-27T10:18:02Z</time>
      </trkpt>
      <trkpt lat="45.33799" lon="5.53986">
        <ele>311.99</ele>
        <time>2021-04-27T10:18:09Z</time>
      </trkpt>
      <trkpt lat="45.33794" lon="5.5398">
        <ele>311.55</ele>
        <time>2021-04-27T10:18:10Z</time>
      </trkpt>
      <trkpt lat="45.33783" lon="5.53967">
        <ele>310.52</ele>
        <time>2021-04-27T10:18:12Z</time>
      </trkpt>
      <trkpt lat="45.33773" lon="5.53952">
        <ele>309.63</ele>
        <time>2021-04-27T10:18:14Z</time>
      </trkpt>
      <trkpt lat="45.33739" lon="5.53946">
        <ele>308.42</ele>
        <time>2021-04-27T10:18:21Z</time>
      </trkpt>
      <trkpt lat="45.33725" lon="5.53956">
        <ele>308.66</ele>
        <time>2021-04-27T10:18:25Z</time>
      </trkpt>
      <trkpt lat="45.33712" lon="5.53944">
        <ele>309.43</ele>
        <time>2021-04-27T10:18:31Z</time>
      </trkpt>
      <trkpt lat="45.33685" lon="5.53906">
        <ele>310.05</ele>
        <time>2021-04-27T10:18:41Z</time>
      </trkpt>
      <trkpt lat="45.33666" lon="5.53882">
        <ele>310.16</ele>
        <time>2021-04-27T10:18:47Z</time>
      </trkpt>
      <trkpt lat="45.33655" lon="5.5387">
        <ele>310.53</ele>
        <time>2021-04-27T10:18:51Z</time>
      </trkpt>
      <trkpt lat="45.33643" lon="5.53857">
        <ele>312.14</ele>
        <time>2021-04-27T10:18:57Z</time>
      </trkpt>
      <trkpt lat="45.33603" lon="5.53825">
        <ele>314.75</ele>
        <time>2021-04-27T10:19:12Z</time>
      </trkpt>
      <trkpt lat="45.33576" lon="5.53805">
        <ele>317.76</ele>
        <time>2021-04-27T10:19:27Z</time>
      </trkpt>
      <trkpt lat="45.3357" lon="5.53797">
        <ele>318.39</ele>
        <time>2021-04-27T10:19:31Z</time>
      </trkpt>
      <trkpt lat="45.3356" lon="5.53783">
        <ele>319.57</ele>
        <time>2021-04-27T10:19:44Z</time>
      </trkpt>
      <trkpt lat="45.33556" lon="5.5377">
        <ele>320.27</ele>
        <time>2021-04-27T10:19:57Z</time>
      </trkpt>
      <trkpt lat="45.33555" lon="5.53769">
        <ele>320.31</ele>
        <time>2021-04-27T10:19:58Z</time>
      </trkpt>
      <trkpt lat="45.33553" lon="5.53767">
        <ele>320.35</ele>
        <time>2021-04-27T10:19:59Z</time>
      </trkpt>
      <trkpt lat="45.33551" lon="5.53766">
        <ele>320.4</ele>
        <time>2021-04-27T10:20:00Z</time>
      </trkpt>
      <trkpt lat="45.33549" lon="5.53764">
        <ele>320.46</ele>
        <time>2021-04-27T10:20:01Z</time>
      </trkpt>
      <trkpt lat="45.33519" lon="5.53749">
        <ele>322.01</ele>
        <time>2021-04-27T10:20:14Z</time>
      </trkpt>
      <trkpt lat="45.3348" lon="5.53714">
        <ele>322.47</ele>
        <time>2021-04-27T10:20:26Z</time>
      </trkpt>
      <trkpt lat="45.33475" lon="5.53709">
        <ele>322.19</ele>
        <time>2021-04-27T10:20:27Z</time>
      </trkpt>
      <trkpt lat="45.33467" lon="5.53698">
        <ele>321.58</ele>
        <time>2021-04-27T10:20:29Z</time>
      </trkpt>
      <trkpt lat="45.3343" lon="5.53639">
        <ele>320.11</ele>
        <time>2021-04-27T10:20:41Z</time>
      </trkpt>
      <trkpt lat="45.3343" lon="5.53633">
        <ele>320.19</ele>
        <time>2021-04-27T10:20:42Z</time>
      </trkpt>
      <trkpt lat="45.33432" lon="5.53629">
        <ele>320.25</ele>
        <time>2021-04-27T10:20:43Z</time>
      </trkpt>
      <trkpt lat="45.33434" lon="5.53625">
        <ele>320.32</ele>
        <time>2021-04-27T10:20:44Z</time>
      </trkpt>
      <trkpt lat="45.33436" lon="5.53622">
        <ele>320.38</ele>
        <time>2021-04-27T10:20:45Z</time>
      </trkpt>
      <trkpt lat="45.33454" lon="5.53596">
        <ele>323.4</ele>
        <time>2021-04-27T10:20:58Z</time>
      </trkpt>
      <trkpt lat="45.33464" lon="5.53576">
        <ele>326.59</ele>
        <time>2021-04-27T10:21:11Z</time>
      </trkpt>
      <trkpt lat="45.33475" lon="5.53559">
        <ele>329.79</ele>
        <time>2021-04-27T10:21:24Z</time>
      </trkpt>
      <trkpt lat="45.3348" lon="5.53553">
        <ele>331.18</ele>
        <time>2021-04-27T10:21:29Z</time>
      </trkpt>
      <trkpt lat="45.33468" lon="5.53518">
        <ele>332.22</ele>
        <time>2021-04-27T10:21:42Z</time>
      </trkpt>
      <trkpt lat="45.33432" lon="5.53462">
        <ele>331.23</ele>
        <time>2021-04-27T10:21:57Z</time>
      </trkpt>
      <trkpt lat="45.33406" lon="5.53431">
        <ele>330.25</ele>
        <time>2021-04-27T10:22:08Z</time>
      </trkpt>
      <trkpt lat="45.33395" lon="5.53415">
        <ele>329.9</ele>
        <time>2021-04-27T10:22:13Z</time>
      </trkpt>
      <trkpt lat="45.33394" lon="5.53411">
        <ele>329.83</ele>
        <time>2021-04-27T10:22:14Z</time>
      </trkpt>
      <trkpt lat="45.33392" lon="5.53407">
        <ele>329.67</ele>
        <time>2021-04-27T10:22:15Z</time>
      </trkpt>
      <trkpt lat="45.3339" lon="5.53404">
        <ele>329.56</ele>
        <time>2021-04-27T10:22:16Z</time>
      </trkpt>
      <trkpt lat="45.33387" lon="5.53401">
        <ele>329.44</ele>
        <time>2021-04-27T10:22:17Z</time>
      </trkpt>
      <trkpt lat="45.33385" lon="5.53396">
        <ele>329.32</ele>
        <time>2021-04-27T10:22:18Z</time>
      </trkpt>
      <trkpt lat="45.33382" lon="5.53391">
        <ele>329.23</ele>
        <time>2021-04-27T10:22:19Z</time>
      </trkpt>
      <trkpt lat="45.33375" lon="5.53382">
        <ele>328.95</ele>
        <time>2021-04-27T10:22:21Z</time>
      </trkpt>
      <trkpt lat="45.33361" lon="5.53368">
        <ele>328.19</ele>
        <time>2021-04-27T10:22:24Z</time>
      </trkpt>
      <trkpt lat="45.33357" lon="5.53366">
        <ele>327.92</ele>
        <time>2021-04-27T10:22:25Z</time>
      </trkpt>
      <trkpt lat="45.33354" lon="5.53368">
        <ele>327.63</ele>
        <time>2021-04-27T10:22:26Z</time>
      </trkpt>
      <trkpt lat="45.33352" lon="5.5337">
        <ele>327.34</ele>
        <time>2021-04-27T10:22:27Z</time>
      </trkpt>
      <trkpt lat="45.33349" lon="5.53375">
        <ele>327.06</ele>
        <time>2021-04-27T10:22:28Z</time>
      </trkpt>
      <trkpt lat="45.33346" lon="5.53378">
        <ele>326.76</ele>
        <time>2021-04-27T10:22:29Z</time>
      </trkpt>
      <trkpt lat="45.33337" lon="5.53394">
        <ele>325.33</ele>
        <time>2021-04-27T10:22:32Z</time>
      </trkpt>
      <trkpt lat="45.33328" lon="5.53405">
        <ele>322.86</ele>
        <time>2021-04-27T10:22:39Z</time>
      </trkpt>
      <trkpt lat="45.33323" lon="5.53412">
        <ele>321.99</ele>
        <time>2021-04-27T10:22:59Z</time>
      </trkpt>
      <trkpt lat="45.3332" lon="5.53408">
        <ele>322.15</ele>
        <time>2021-04-27T10:23:29Z</time>
      </trkpt>
      <trkpt lat="45.3331" lon="5.53415">
        <ele>321.65</ele>
        <time>2021-04-27T10:23:54Z</time>
      </trkpt>
      <trkpt lat="45.33307" lon="5.53416">
        <ele>321.42</ele>
        <time>2021-04-27T10:23:55Z</time>
      </trkpt>
      <trkpt lat="45.33306" lon="5.53416">
        <ele>321.29</ele>
        <time>2021-04-27T10:23:56Z</time>
      </trkpt>
      <trkpt lat="45.33304" lon="5.53417">
        <ele>321.18</ele>
        <time>2021-04-27T10:23:57Z</time>
      </trkpt>
      <trkpt lat="45.33302" lon="5.53416">
        <ele>321.07</ele>
        <time>2021-04-27T10:23:58Z</time>
      </trkpt>
      <trkpt lat="45.333" lon="5.53416">
        <ele>321.02</ele>
        <time>2021-04-27T10:23:59Z</time>
      </trkpt>
      <trkpt lat="45.33273" lon="5.53419">
        <ele>320.66</ele>
        <time>2021-04-27T10:24:09Z</time>
      </trkpt>
      <trkpt lat="45.33261" lon="5.5343">
        <ele>320.16</ele>
        <time>2021-04-27T10:24:12Z</time>
      </trkpt>
      <trkpt lat="45.33252" lon="5.5344">
        <ele>319.69</ele>
        <time>2021-04-27T10:24:14Z</time>
      </trkpt>
      <trkpt lat="45.33242" lon="5.53448">
        <ele>319.07</ele>
        <time>2021-04-27T10:24:16Z</time>
      </trkpt>
      <trkpt lat="45.33236" lon="5.53451">
        <ele>318.65</ele>
        <time>2021-04-27T10:24:17Z</time>
      </trkpt>
      <trkpt lat="45.3323" lon="5.53453">
        <ele>318.16</ele>
        <time>2021-04-27T10:24:18Z</time>
      </trkpt>
      <trkpt lat="45.33219" lon="5.53461">
        <ele>316.72</ele>
        <time>2021-04-27T10:24:20Z</time>
      </trkpt>
      <trkpt lat="45.33216" lon="5.53468">
        <ele>316.23</ele>
        <time>2021-04-27T10:24:21Z</time>
      </trkpt>
      <trkpt lat="45.33212" lon="5.53476">
        <ele>315.77</ele>
        <time>2021-04-27T10:24:22Z</time>
      </trkpt>
      <trkpt lat="45.33205" lon="5.53492">
        <ele>314.64</ele>
        <time>2021-04-27T10:24:24Z</time>
      </trkpt>
      <trkpt lat="45.33202" lon="5.53499">
        <ele>314.06</ele>
        <time>2021-04-27T10:24:25Z</time>
      </trkpt>
      <trkpt lat="45.33198" lon="5.53505">
        <ele>313.59</ele>
        <time>2021-04-27T10:24:26Z</time>
      </trkpt>
      <trkpt lat="45.33187" lon="5.53514">
        <ele>312.79</ele>
        <time>2021-04-27T10:24:30Z</time>
      </trkpt>
      <trkpt lat="45.33187" lon="5.53517">
        <ele>312.78</ele>
        <time>2021-04-27T10:24:31Z</time>
      </trkpt>
      <trkpt lat="45.33185" lon="5.5352">
        <ele>312.77</ele>
        <time>2021-04-27T10:24:32Z</time>
      </trkpt>
      <trkpt lat="45.33183" lon="5.53524">
        <ele>312.76</ele>
        <time>2021-04-27T10:24:33Z</time>
      </trkpt>
      <trkpt lat="45.33179" lon="5.53528">
        <ele>312.7</ele>
        <time>2021-04-27T10:24:34Z</time>
      </trkpt>
      <trkpt lat="45.33171" lon="5.5354">
        <ele>312.29</ele>
        <time>2021-04-27T10:24:36Z</time>
      </trkpt>
      <trkpt lat="45.33161" lon="5.53551">
        <ele>311.55</ele>
        <time>2021-04-27T10:24:38Z</time>
      </trkpt>
      <trkpt lat="45.33157" lon="5.53556">
        <ele>311.12</ele>
        <time>2021-04-27T10:24:39Z</time>
      </trkpt>
      <trkpt lat="45.33153" lon="5.53559">
        <ele>310.65</ele>
        <time>2021-04-27T10:24:40Z</time>
      </trkpt>
      <trkpt lat="45.33148" lon="5.5356">
        <ele>310.12</ele>
        <time>2021-04-27T10:24:41Z</time>
      </trkpt>
      <trkpt lat="45.33142" lon="5.5356">
        <ele>309.59</ele>
        <time>2021-04-27T10:24:42Z</time>
      </trkpt>
      <trkpt lat="45.33136" lon="5.53561">
        <ele>308.56</ele>
        <time>2021-04-27T10:24:43Z</time>
      </trkpt>
      <trkpt lat="45.33131" lon="5.53562">
        <ele>308.04</ele>
        <time>2021-04-27T10:24:44Z</time>
      </trkpt>
      <trkpt lat="45.33105" lon="5.53567">
        <ele>305.99</ele>
        <time>2021-04-27T10:24:48Z</time>
      </trkpt>
      <trkpt lat="45.331" lon="5.53566">
        <ele>305.51</ele>
        <time>2021-04-27T10:24:49Z</time>
      </trkpt>
      <trkpt lat="45.33095" lon="5.53566">
        <ele>305.08</ele>
        <time>2021-04-27T10:24:50Z</time>
      </trkpt>
      <trkpt lat="45.33091" lon="5.53567">
        <ele>304.72</ele>
        <time>2021-04-27T10:24:51Z</time>
      </trkpt>
      <trkpt lat="45.33087" lon="5.53567">
        <ele>304.38</ele>
        <time>2021-04-27T10:24:52Z</time>
      </trkpt>
      <trkpt lat="45.33083" lon="5.53568">
        <ele>304.05</ele>
        <time>2021-04-27T10:24:53Z</time>
      </trkpt>
      <trkpt lat="45.3308" lon="5.5357">
        <ele>303.75</ele>
        <time>2021-04-27T10:24:54Z</time>
      </trkpt>
      <trkpt lat="45.33077" lon="5.53574">
        <ele>303.46</ele>
        <time>2021-04-27T10:24:55Z</time>
      </trkpt>
      <trkpt lat="45.33075" lon="5.53578">
        <ele>303.16</ele>
        <time>2021-04-27T10:24:56Z</time>
      </trkpt>
      <trkpt lat="45.33073" lon="5.5358">
        <ele>302.87</ele>
        <time>2021-04-27T10:24:57Z</time>
      </trkpt>
      <trkpt lat="45.33072" lon="5.53585">
        <ele>302.59</ele>
        <time>2021-04-27T10:24:58Z</time>
      </trkpt>
      <trkpt lat="45.3307" lon="5.5359">
        <ele>302.29</ele>
        <time>2021-04-27T10:24:59Z</time>
      </trkpt>
      <trkpt lat="45.3307" lon="5.53596">
        <ele>301.95</ele>
        <time>2021-04-27T10:25:00Z</time>
      </trkpt>
      <trkpt lat="45.33069" lon="5.53602">
        <ele>301.58</ele>
        <time>2021-04-27T10:25:01Z</time>
      </trkpt>
      <trkpt lat="45.33067" lon="5.53626">
        <ele>298.59</ele>
        <time>2021-04-27T10:25:06Z</time>
      </trkpt>
      <trkpt lat="45.33061" lon="5.53641">
        <ele>294.47</ele>
        <time>2021-04-27T10:25:10Z</time>
      </trkpt>
      <trkpt lat="45.33054" lon="5.53657">
        <ele>289.93</ele>
        <time>2021-04-27T10:25:16Z</time>
      </trkpt>
      <trkpt lat="45.33056" lon="5.53675">
        <ele>286.3</ele>
        <time>2021-04-27T10:25:20Z</time>
      </trkpt>
      <trkpt lat="45.33056" lon="5.53691">
        <ele>283.37</ele>
        <time>2021-04-27T10:25:23Z</time>
      </trkpt>
      <trkpt lat="45.33055" lon="5.53736">
        <ele>277.9</ele>
        <time>2021-04-27T10:25:28Z</time>
      </trkpt>
      <trkpt lat="45.3306" lon="5.53749">
        <ele>274.49</ele>
        <time>2021-04-27T10:25:31Z</time>
      </trkpt>
      <trkpt lat="45.33061" lon="5.5375">
        <ele>273.98</ele>
        <time>2021-04-27T10:25:32Z</time>
      </trkpt>
      <trkpt lat="45.33063" lon="5.53752">
        <ele>273.61</ele>
        <time>2021-04-27T10:25:33Z</time>
      </trkpt>
      <trkpt lat="45.33064" lon="5.53756">
        <ele>273.33</ele>
        <time>2021-04-27T10:25:34Z</time>
      </trkpt>
      <trkpt lat="45.33065" lon="5.53761">
        <ele>273.1</ele>
        <time>2021-04-27T10:25:35Z</time>
      </trkpt>
      <trkpt lat="45.33066" lon="5.53766">
        <ele>272.93</ele>
        <time>2021-04-27T10:25:36Z</time>
      </trkpt>
      <trkpt lat="45.33068" lon="5.53771">
        <ele>272.81</ele>
        <time>2021-04-27T10:25:37Z</time>
      </trkpt>
      <trkpt lat="45.33084" lon="5.53822">
        <ele>272.38</ele>
        <time>2021-04-27T10:25:45Z</time>
      </trkpt>
      <trkpt lat="45.33111" lon="5.5389">
        <ele>272.62</ele>
        <time>2021-04-27T10:25:57Z</time>
      </trkpt>
      <trkpt lat="45.33128" lon="5.53926">
        <ele>273.03</ele>
        <time>2021-04-27T10:26:04Z</time>
      </trkpt>
      <trkpt lat="45.33148" lon="5.53958">
        <ele>273.45</ele>
        <time>2021-04-27T10:26:10Z</time>
      </trkpt>
      <trkpt lat="45.33165" lon="5.53992">
        <ele>273.95</ele>
        <time>2021-04-27T10:26:16Z</time>
      </trkpt>
      <trkpt lat="45.33168" lon="5.53998">
        <ele>274.01</ele>
        <time>2021-04-27T10:26:17Z</time>
      </trkpt>
      <trkpt lat="45.3317" lon="5.54004">
        <ele>274.07</ele>
        <time>2021-04-27T10:26:18Z</time>
      </trkpt>
      <trkpt lat="45.33173" lon="5.5401">
        <ele>274.16</ele>
        <time>2021-04-27T10:26:19Z</time>
      </trkpt>
      <trkpt lat="45.33175" lon="5.54016">
        <ele>274.16</ele>
        <time>2021-04-27T10:26:20Z</time>
      </trkpt>
      <trkpt lat="45.33178" lon="5.54022">
        <ele>274.23</ele>
        <time>2021-04-27T10:26:21Z</time>
      </trkpt>
      <trkpt lat="45.33186" lon="5.54037">
        <ele>274.31</ele>
        <time>2021-04-27T10:26:24Z</time>
      </trkpt>
      <trkpt lat="45.33201" lon="5.54062">
        <ele>274.45</ele>
        <time>2021-04-27T10:26:29Z</time>
      </trkpt>
      <trkpt lat="45.33203" lon="5.54067">
        <ele>274.5</ele>
        <time>2021-04-27T10:26:30Z</time>
      </trkpt>
      <trkpt lat="45.33206" lon="5.54073">
        <ele>274.58</ele>
        <time>2021-04-27T10:26:31Z</time>
      </trkpt>
      <trkpt lat="45.33215" lon="5.54091">
        <ele>274.85</ele>
        <time>2021-04-27T10:26:34Z</time>
      </trkpt>
      <trkpt lat="45.33234" lon="5.5414">
        <ele>275.36</ele>
        <time>2021-04-27T10:26:42Z</time>
      </trkpt>
      <trkpt lat="45.33246" lon="5.54172">
        <ele>275.33</ele>
        <time>2021-04-27T10:26:47Z</time>
      </trkpt>
      <trkpt lat="45.33296" lon="5.54244">
        <ele>275.5</ele>
        <time>2021-04-27T10:27:01Z</time>
      </trkpt>
      <trkpt lat="45.33308" lon="5.54261">
        <ele>275.79</ele>
        <time>2021-04-27T10:27:05Z</time>
      </trkpt>
      <trkpt lat="45.3331" lon="5.54267">
        <ele>275.97</ele>
        <time>2021-04-27T10:27:06Z</time>
      </trkpt>
      <trkpt lat="45.33312" lon="5.54274">
        <ele>276.11</ele>
        <time>2021-04-27T10:27:07Z</time>
      </trkpt>
      <trkpt lat="45.33315" lon="5.54301">
        <ele>276.32</ele>
        <time>2021-04-27T10:27:10Z</time>
      </trkpt>
      <trkpt lat="45.33315" lon="5.5431">
        <ele>275.99</ele>
        <time>2021-04-27T10:27:11Z</time>
      </trkpt>
      <trkpt lat="45.33314" lon="5.5432">
        <ele>275.69</ele>
        <time>2021-04-27T10:27:12Z</time>
      </trkpt>
      <trkpt lat="45.33312" lon="5.54329">
        <ele>275.35</ele>
        <time>2021-04-27T10:27:13Z</time>
      </trkpt>
      <trkpt lat="45.33309" lon="5.54338">
        <ele>275.05</ele>
        <time>2021-04-27T10:27:14Z</time>
      </trkpt>
      <trkpt lat="45.33305" lon="5.54346">
        <ele>274.77</ele>
        <time>2021-04-27T10:27:15Z</time>
      </trkpt>
      <trkpt lat="45.33301" lon="5.54354">
        <ele>274.46</ele>
        <time>2021-04-27T10:27:16Z</time>
      </trkpt>
      <trkpt lat="45.33263" lon="5.54419">
        <ele>272.5</ele>
        <time>2021-04-27T10:27:25Z</time>
      </trkpt>
      <trkpt lat="45.33225" lon="5.54482">
        <ele>272.03</ele>
        <time>2021-04-27T10:27:36Z</time>
      </trkpt>
      <trkpt lat="45.33224" lon="5.54489">
        <ele>272.01</ele>
        <time>2021-04-27T10:27:37Z</time>
      </trkpt>
      <trkpt lat="45.33225" lon="5.54496">
        <ele>272</ele>
        <time>2021-04-27T10:27:38Z</time>
      </trkpt>
      <trkpt lat="45.33227" lon="5.54502">
        <ele>271.98</ele>
        <time>2021-04-27T10:27:39Z</time>
      </trkpt>
      <trkpt lat="45.3323" lon="5.54507">
        <ele>271.98</ele>
        <time>2021-04-27T10:27:40Z</time>
      </trkpt>
      <trkpt lat="45.33234" lon="5.54511">
        <ele>271.97</ele>
        <time>2021-04-27T10:27:41Z</time>
      </trkpt>
      <trkpt lat="45.33238" lon="5.54515">
        <ele>271.97</ele>
        <time>2021-04-27T10:27:42Z</time>
      </trkpt>
      <trkpt lat="45.33252" lon="5.54534">
        <ele>272.08</ele>
        <time>2021-04-27T10:27:46Z</time>
      </trkpt>
      <trkpt lat="45.33258" lon="5.54544">
        <ele>272.15</ele>
        <time>2021-04-27T10:27:48Z</time>
      </trkpt>
      <trkpt lat="45.33278" lon="5.5457">
        <ele>272.25</ele>
        <time>2021-04-27T10:27:53Z</time>
      </trkpt>
      <trkpt lat="45.33292" lon="5.54586">
        <ele>272.35</ele>
        <time>2021-04-27T10:27:56Z</time>
      </trkpt>
      <trkpt lat="45.33334" lon="5.54617">
        <ele>272.47</ele>
        <time>2021-04-27T10:28:04Z</time>
      </trkpt>
      <trkpt lat="45.33352" lon="5.54631">
        <ele>272.66</ele>
        <time>2021-04-27T10:28:08Z</time>
      </trkpt>
      <trkpt lat="45.33391" lon="5.54656">
        <ele>273.63</ele>
        <time>2021-04-27T10:28:16Z</time>
      </trkpt>
      <trkpt lat="45.33395" lon="5.54661">
        <ele>273.78</ele>
        <time>2021-04-27T10:28:17Z</time>
      </trkpt>
      <trkpt lat="45.33399" lon="5.54666">
        <ele>273.9</ele>
        <time>2021-04-27T10:28:18Z</time>
      </trkpt>
      <trkpt lat="45.33403" lon="5.54672">
        <ele>274.02</ele>
        <time>2021-04-27T10:28:19Z</time>
      </trkpt>
      <trkpt lat="45.33407" lon="5.54679">
        <ele>274.14</ele>
        <time>2021-04-27T10:28:20Z</time>
      </trkpt>
      <trkpt lat="45.33455" lon="5.5478">
        <ele>274.9</ele>
        <time>2021-04-27T10:28:34Z</time>
      </trkpt>
      <trkpt lat="45.33462" lon="5.54791">
        <ele>275.07</ele>
        <time>2021-04-27T10:28:36Z</time>
      </trkpt>
      <trkpt lat="45.33482" lon="5.54822">
        <ele>275.62</ele>
        <time>2021-04-27T10:28:42Z</time>
      </trkpt>
      <trkpt lat="45.33539" lon="5.5488">
        <ele>276.16</ele>
        <time>2021-04-27T10:28:55Z</time>
      </trkpt>
      <trkpt lat="45.33565" lon="5.54905">
        <ele>276.46</ele>
        <time>2021-04-27T10:29:01Z</time>
      </trkpt>
      <trkpt lat="45.33608" lon="5.54973">
        <ele>277.39</ele>
        <time>2021-04-27T10:29:14Z</time>
      </trkpt>
      <trkpt lat="45.33616" lon="5.54993">
        <ele>277.69</ele>
        <time>2021-04-27T10:29:17Z</time>
      </trkpt>
      <trkpt lat="45.33618" lon="5.55">
        <ele>277.81</ele>
        <time>2021-04-27T10:29:18Z</time>
      </trkpt>
      <trkpt lat="45.3362" lon="5.5502">
        <ele>278.39</ele>
        <time>2021-04-27T10:29:21Z</time>
      </trkpt>
      <trkpt lat="45.3362" lon="5.55027">
        <ele>278.59</ele>
        <time>2021-04-27T10:29:22Z</time>
      </trkpt>
      <trkpt lat="45.3362" lon="5.55033">
        <ele>278.76</ele>
        <time>2021-04-27T10:29:23Z</time>
      </trkpt>
      <trkpt lat="45.33619" lon="5.55082">
        <ele>279.25</ele>
        <time>2021-04-27T10:29:30Z</time>
      </trkpt>
      <trkpt lat="45.33617" lon="5.55102">
        <ele>279.21</ele>
        <time>2021-04-27T10:29:33Z</time>
      </trkpt>
      <trkpt lat="45.33607" lon="5.55195">
        <ele>277.89</ele>
        <time>2021-04-27T10:29:45Z</time>
      </trkpt>
      <trkpt lat="45.33604" lon="5.55202">
        <ele>277.8</ele>
        <time>2021-04-27T10:29:46Z</time>
      </trkpt>
      <trkpt lat="45.336" lon="5.55207">
        <ele>277.67</ele>
        <time>2021-04-27T10:29:47Z</time>
      </trkpt>
      <trkpt lat="45.33596" lon="5.5521">
        <ele>277.54</ele>
        <time>2021-04-27T10:29:48Z</time>
      </trkpt>
      <trkpt lat="45.33592" lon="5.55212">
        <ele>277.43</ele>
        <time>2021-04-27T10:29:49Z</time>
      </trkpt>
      <trkpt lat="45.33564" lon="5.55233">
        <ele>278.32</ele>
        <time>2021-04-27T10:29:59Z</time>
      </trkpt>
      <trkpt lat="45.33552" lon="5.55247">
        <ele>278.41</ele>
        <time>2021-04-27T10:30:02Z</time>
      </trkpt>
      <trkpt lat="45.33535" lon="5.55266">
        <ele>278.18</ele>
        <time>2021-04-27T10:30:06Z</time>
      </trkpt>
      <trkpt lat="45.33486" lon="5.55314">
        <ele>277.77</ele>
        <time>2021-04-27T10:30:20Z</time>
      </trkpt>
      <trkpt lat="45.33455" lon="5.55344">
        <ele>279.1</ele>
        <time>2021-04-27T10:30:30Z</time>
      </trkpt>
      <trkpt lat="45.33446" lon="5.55349">
        <ele>279.17</ele>
        <time>2021-04-27T10:30:32Z</time>
      </trkpt>
      <trkpt lat="45.3344" lon="5.5535">
        <ele>279.01</ele>
        <time>2021-04-27T10:30:33Z</time>
      </trkpt>
      <trkpt lat="45.33426" lon="5.55353">
        <ele>278.39</ele>
        <time>2021-04-27T10:30:35Z</time>
      </trkpt>
      <trkpt lat="45.33419" lon="5.55355">
        <ele>277.96</ele>
        <time>2021-04-27T10:30:36Z</time>
      </trkpt>
      <trkpt lat="45.33402" lon="5.55358">
        <ele>277.02</ele>
        <time>2021-04-27T10:30:38Z</time>
      </trkpt>
      <trkpt lat="45.33395" lon="5.55359">
        <ele>276.44</ele>
        <time>2021-04-27T10:30:39Z</time>
      </trkpt>
      <trkpt lat="45.33388" lon="5.55363">
        <ele>275.81</ele>
        <time>2021-04-27T10:30:40Z</time>
      </trkpt>
      <trkpt lat="45.33381" lon="5.55368">
        <ele>274.55</ele>
        <time>2021-04-27T10:30:41Z</time>
      </trkpt>
      <trkpt lat="45.3336" lon="5.55384">
        <ele>272.15</ele>
        <time>2021-04-27T10:30:44Z</time>
      </trkpt>
      <trkpt lat="45.33351" lon="5.55392">
        <ele>271.21</ele>
        <time>2021-04-27T10:30:45Z</time>
      </trkpt>
      <trkpt lat="45.33342" lon="5.55398">
        <ele>270.21</ele>
        <time>2021-04-27T10:30:46Z</time>
      </trkpt>
      <trkpt lat="45.33324" lon="5.55411">
        <ele>268.24</ele>
        <time>2021-04-27T10:30:48Z</time>
      </trkpt>
      <trkpt lat="45.33316" lon="5.55419">
        <ele>267.24</ele>
        <time>2021-04-27T10:30:49Z</time>
      </trkpt>
      <trkpt lat="45.33309" lon="5.55429">
        <ele>266.33</ele>
        <time>2021-04-27T10:30:50Z</time>
      </trkpt>
      <trkpt lat="45.33285" lon="5.55468">
        <ele>262.83</ele>
        <time>2021-04-27T10:30:55Z</time>
      </trkpt>
      <trkpt lat="45.33279" lon="5.5547">
        <ele>262.22</ele>
        <time>2021-04-27T10:30:56Z</time>
      </trkpt>
      <trkpt lat="45.33273" lon="5.55469">
        <ele>261.61</ele>
        <time>2021-04-27T10:30:57Z</time>
      </trkpt>
      <trkpt lat="45.33266" lon="5.55466">
        <ele>261.02</ele>
        <time>2021-04-27T10:30:58Z</time>
      </trkpt>
      <trkpt lat="45.3326" lon="5.55463">
        <ele>260.51</ele>
        <time>2021-04-27T10:30:59Z</time>
      </trkpt>
      <trkpt lat="45.33247" lon="5.55457">
        <ele>259.71</ele>
        <time>2021-04-27T10:31:01Z</time>
      </trkpt>
      <trkpt lat="45.3324" lon="5.55456">
        <ele>259.36</ele>
        <time>2021-04-27T10:31:02Z</time>
      </trkpt>
      <trkpt lat="45.33199" lon="5.55451">
        <ele>257.38</ele>
        <time>2021-04-27T10:31:12Z</time>
      </trkpt>
      <trkpt lat="45.33165" lon="5.55459">
        <ele>256.7</ele>
        <time>2021-04-27T10:31:23Z</time>
      </trkpt>
      <trkpt lat="45.33151" lon="5.55496">
        <ele>255.75</ele>
        <time>2021-04-27T10:31:28Z</time>
      </trkpt>
      <trkpt lat="45.33149" lon="5.55505">
        <ele>255.32</ele>
        <time>2021-04-27T10:31:29Z</time>
      </trkpt>
      <trkpt lat="45.33145" lon="5.55514">
        <ele>254.4</ele>
        <time>2021-04-27T10:31:30Z</time>
      </trkpt>
      <trkpt lat="45.3314" lon="5.55522">
        <ele>253.86</ele>
        <time>2021-04-27T10:31:31Z</time>
      </trkpt>
      <trkpt lat="45.33133" lon="5.5553">
        <ele>253.23</ele>
        <time>2021-04-27T10:31:32Z</time>
      </trkpt>
      <trkpt lat="45.33127" lon="5.55538">
        <ele>252.53</ele>
        <time>2021-04-27T10:31:33Z</time>
      </trkpt>
      <trkpt lat="45.33098" lon="5.5557">
        <ele>249.04</ele>
        <time>2021-04-27T10:31:37Z</time>
      </trkpt>
      <trkpt lat="45.33085" lon="5.55583">
        <ele>247.23</ele>
        <time>2021-04-27T10:31:39Z</time>
      </trkpt>
      <trkpt lat="45.33079" lon="5.55587">
        <ele>246.47</ele>
        <time>2021-04-27T10:31:40Z</time>
      </trkpt>
      <trkpt lat="45.33071" lon="5.55586">
        <ele>245.75</ele>
        <time>2021-04-27T10:31:41Z</time>
      </trkpt>
      <trkpt lat="45.33064" lon="5.55582">
        <ele>245.04</ele>
        <time>2021-04-27T10:31:42Z</time>
      </trkpt>
      <trkpt lat="45.33056" lon="5.55576">
        <ele>244.32</ele>
        <time>2021-04-27T10:31:43Z</time>
      </trkpt>
      <trkpt lat="45.33049" lon="5.5557">
        <ele>243.6</ele>
        <time>2021-04-27T10:31:44Z</time>
      </trkpt>
      <trkpt lat="45.3304" lon="5.55567">
        <ele>242.92</ele>
        <time>2021-04-27T10:31:45Z</time>
      </trkpt>
      <trkpt lat="45.33031" lon="5.55567">
        <ele>242.28</ele>
        <time>2021-04-27T10:31:46Z</time>
      </trkpt>
      <trkpt lat="45.33023" lon="5.55571">
        <ele>241.59</ele>
        <time>2021-04-27T10:31:47Z</time>
      </trkpt>
      <trkpt lat="45.33015" lon="5.55575">
        <ele>240.81</ele>
        <time>2021-04-27T10:31:48Z</time>
      </trkpt>
      <trkpt lat="45.32989" lon="5.55582">
        <ele>238.6</ele>
        <time>2021-04-27T10:31:51Z</time>
      </trkpt>
      <trkpt lat="45.32981" lon="5.55581">
        <ele>237.93</ele>
        <time>2021-04-27T10:31:52Z</time>
      </trkpt>
      <trkpt lat="45.32973" lon="5.55579">
        <ele>237.31</ele>
        <time>2021-04-27T10:31:53Z</time>
      </trkpt>
      <trkpt lat="45.32958" lon="5.55572">
        <ele>235.83</ele>
        <time>2021-04-27T10:31:55Z</time>
      </trkpt>
      <trkpt lat="45.3295" lon="5.55567">
        <ele>235.48</ele>
        <time>2021-04-27T10:31:56Z</time>
      </trkpt>
      <trkpt lat="45.32944" lon="5.55562">
        <ele>235.2</ele>
        <time>2021-04-27T10:31:57Z</time>
      </trkpt>
      <trkpt lat="45.32937" lon="5.55555">
        <ele>235.02</ele>
        <time>2021-04-27T10:31:58Z</time>
      </trkpt>
      <trkpt lat="45.32931" lon="5.55548">
        <ele>234.9</ele>
        <time>2021-04-27T10:31:59Z</time>
      </trkpt>
      <trkpt lat="45.32926" lon="5.55541">
        <ele>234.84</ele>
        <time>2021-04-27T10:32:00Z</time>
      </trkpt>
      <trkpt lat="45.32889" lon="5.55495">
        <ele>234.33</ele>
        <time>2021-04-27T10:32:07Z</time>
      </trkpt>
      <trkpt lat="45.32882" lon="5.55492">
        <ele>234.13</ele>
        <time>2021-04-27T10:32:08Z</time>
      </trkpt>
      <trkpt lat="45.32875" lon="5.55494">
        <ele>233.92</ele>
        <time>2021-04-27T10:32:09Z</time>
      </trkpt>
      <trkpt lat="45.32868" lon="5.555">
        <ele>233.7</ele>
        <time>2021-04-27T10:32:10Z</time>
      </trkpt>
      <trkpt lat="45.32862" lon="5.55507">
        <ele>233.46</ele>
        <time>2021-04-27T10:32:11Z</time>
      </trkpt>
      <trkpt lat="45.32856" lon="5.55515">
        <ele>233.14</ele>
        <time>2021-04-27T10:32:12Z</time>
      </trkpt>
      <trkpt lat="45.3285" lon="5.55522">
        <ele>232.7</ele>
        <time>2021-04-27T10:32:13Z</time>
      </trkpt>
      <trkpt lat="45.32844" lon="5.55531">
        <ele>232.16</ele>
        <time>2021-04-27T10:32:14Z</time>
      </trkpt>
      <trkpt lat="45.3283" lon="5.55545">
        <ele>231.07</ele>
        <time>2021-04-27T10:32:16Z</time>
      </trkpt>
      <trkpt lat="45.32802" lon="5.55562">
        <ele>227.97</ele>
        <time>2021-04-27T10:32:20Z</time>
      </trkpt>
      <trkpt lat="45.32796" lon="5.55563">
        <ele>227.46</ele>
        <time>2021-04-27T10:32:21Z</time>
      </trkpt>
      <trkpt lat="45.32775" lon="5.5556">
        <ele>225.73</ele>
        <time>2021-04-27T10:32:26Z</time>
      </trkpt>
      <trkpt lat="45.32771" lon="5.55556">
        <ele>225.46</ele>
        <time>2021-04-27T10:32:27Z</time>
      </trkpt>
      <trkpt lat="45.3276" lon="5.55544">
        <ele>224.76</ele>
        <time>2021-04-27T10:32:30Z</time>
      </trkpt>
      <trkpt lat="45.32756" lon="5.5554">
        <ele>224.56</ele>
        <time>2021-04-27T10:32:31Z</time>
      </trkpt>
      <trkpt lat="45.32752" lon="5.55535">
        <ele>224.34</ele>
        <time>2021-04-27T10:32:32Z</time>
      </trkpt>
      <trkpt lat="45.32733" lon="5.55509">
        <ele>223.23</ele>
        <time>2021-04-27T10:32:38Z</time>
      </trkpt>
      <trkpt lat="45.32731" lon="5.55503">
        <ele>223.13</ele>
        <time>2021-04-27T10:32:39Z</time>
      </trkpt>
      <trkpt lat="45.3273" lon="5.55498">
        <ele>223.05</ele>
        <time>2021-04-27T10:32:40Z</time>
      </trkpt>
      <trkpt lat="45.3273" lon="5.55492">
        <ele>222.95</ele>
        <time>2021-04-27T10:32:41Z</time>
      </trkpt>
      <trkpt lat="45.32729" lon="5.55487">
        <ele>222.9</ele>
        <time>2021-04-27T10:32:42Z</time>
      </trkpt>
      <trkpt lat="45.3273" lon="5.55482">
        <ele>222.91</ele>
        <time>2021-04-27T10:32:43Z</time>
      </trkpt>
      <trkpt lat="45.32731" lon="5.55477">
        <ele>222.97</ele>
        <time>2021-04-27T10:32:44Z</time>
      </trkpt>
      <trkpt lat="45.32738" lon="5.55441">
        <ele>225.52</ele>
        <time>2021-04-27T10:32:57Z</time>
      </trkpt>
      <trkpt lat="45.32737" lon="5.55441">
        <ele>226.68</ele>
        <time>2021-04-27T10:33:22Z</time>
      </trkpt>
    </trkseg>
  </trk>
</gpx>